Wetterdaten: Mittwoch, 10.11.2021
Datum Zeit Temp. Aussen Temp. o. S. Temp +5cm Feuchte Auss Luftdruck Regen Sonnenschein Regendauer Solar Windben Empfang
10.11.2021 00:00 4,9 C 3,9 C 1,7 C 90 % 1026,4 hPa 0,0 l/m 0 min 0 min 0 W/m 6,4 km/h (2 Bft) 100,00 %
10.11.2021 00:02 4,9 C 3,9 C 1,7 C 90 % 1026,3 hPa 0,0 l/m 0 min 0 min 0 W/m 3,2 km/h (1 Bft) 97,83 %
10.11.2021 00:04 4,9 C 3,9 C 1,7 C 90 % 1026,4 hPa 0,0 l/m 0 min 0 min 0 W/m 6,4 km/h (2 Bft) 100,00 %
10.11.2021 00:07 4,8 C 3,9 C 1,7 C 90 % 1026,4 hPa 0,0 l/m 0 min 0 min 0 W/m 6,4 km/h (2 Bft) 100,00 %
10.11.2021 00:08 4,8 C 3,9 C 1,7 C 90 % 1026,4 hPa 0,0 l/m 0 min 0 min 0 W/m 3,2 km/h (1 Bft) 100,00 %
10.11.2021 00:10 4,8 C 3,9 C 1,7 C 90 % 1026,4 hPa 0,0 l/m 0 min 0 min 0 W/m 6,4 km/h (2 Bft) 97,87 %
10.11.2021 00:12 4,8 C 3,9 C 1,7 C 90 % 1026,3 hPa 0,0 l/m 0 min 0 min 0 W/m 12,9 km/h (3 Bft) 100,00 %
10.11.2021 00:14 4,8 C 3,9 C 1,7 C 90 % 1026,3 hPa 0,0 l/m 0 min 0 min 0 W/m 6,4 km/h (2 Bft) 82,98 %
10.11.2021 00:16 4,8 C 3,9 C 1,7 C 90 % 1026,3 hPa 0,0 l/m 0 min 0 min 0 W/m 6,4 km/h (2 Bft) 72,09 %
10.11.2021 00:18 4,8 C 3,9 C 1,7 C 90 % 1026,3 hPa 0,0 l/m 0 min 0 min 0 W/m 12,9 km/h (3 Bft) 100,00 %
10.11.2021 00:20 4,8 C 3,9 C 1,7 C 90 % 1026,4 hPa 0,0 l/m 0 min 0 min 0 W/m 6,4 km/h (2 Bft) 95,65 %
10.11.2021 00:22 4,7 C 3,9 C 1,7 C 90 % 1026,4 hPa 0,0 l/m 0 min 0 min 0 W/m 3,2 km/h (1 Bft) 97,87 %
10.11.2021 00:24 4,7 C 3,9 C 1,7 C 90 % 1026,4 hPa 0,0 l/m 0 min 0 min 0 W/m 3,2 km/h (1 Bft) 95,74 %
10.11.2021 00:26 4,7 C 3,9 C 1,7 C 90 % 1026,4 hPa 0,0 l/m 0 min 0 min 0 W/m 12,9 km/h (3 Bft) 95,74 %
10.11.2021 00:28 4,7 C 3,9 C 1,7 C 91 % 1026,4 hPa 0,0 l/m 0 min 0 min 0 W/m 3,2 km/h (1 Bft) 97,87 %
10.11.2021 00:30 4,7 C 3,9 C 1,7 C 91 % 1026,4 hPa 0,0 l/m 0 min 0 min 0 W/m 6,4 km/h (2 Bft) 97,87 %
10.11.2021 00:32 4,6 C 3,9 C 1,7 C 91 % 1026,4 hPa 0,0 l/m 0 min 0 min 0 W/m 3,2 km/h (1 Bft) 97,83 %
10.11.2021 00:34 4,6 C 3,9 C 1,7 C 91 % 1026,5 hPa 0,0 l/m 0 min 0 min 0 W/m 3,2 km/h (1 Bft) 95,74 %
10.11.2021 00:36 4,6 C 3,9 C 1,7 C 91 % 1026,4 hPa 0,0 l/m 0 min 0 min 0 W/m 3,2 km/h (1 Bft) 95,74 %
10.11.2021 00:38 4,6 C 3,9 C 1,7 C 91 % 1026,4 hPa 0,0 l/m 0 min 0 min 0 W/m 3,2 km/h (1 Bft) 95,74 %
10.11.2021 00:40 4,6 C 3,9 C 1,7 C 91 % 1026,4 hPa 0,0 l/m 0 min 0 min 0 W/m 3,2 km/h (1 Bft) 93,62 %
10.11.2021 00:42 4,6 C 3,9 C 1,7 C 91 % 1026,4 hPa 0,0 l/m 0 min 0 min 0 W/m 6,4 km/h (2 Bft) 95,74 %
10.11.2021 00:44 4,6 C 3,9 C 1,7 C 91 % 1026,4 hPa 0,0 l/m 0 min 0 min 0 W/m 6,4 km/h (2 Bft) 93,48 %
10.11.2021 00:46 4,6 C 3,9 C 1,7 C 91 % 1026,3 hPa 0,0 l/m 0 min 0 min 0 W/m 3,2 km/h (1 Bft) 95,74 %
10.11.2021 00:48 4,6 C 3,9 C 1,7 C 91 % 1026,4 hPa 0,0 l/m 0 min 0 min 0 W/m 6,4 km/h (2 Bft) 95,74 %
10.11.2021 00:50 4,6 C 3,9 C 1,7 C 91 % 1026,3 hPa 0,0 l/m 0 min 0 min 0 W/m 3,2 km/h (1 Bft) 95,74 %
10.11.2021 00:52 4,5 C 3,9 C 1,7 C 91 % 1026,2 hPa 0,0 l/m 0 min 0 min 0 W/m 6,4 km/h (2 Bft) 95,74 %
10.11.2021 00:54 4,5 C 3,9 C 1,7 C 91 % 1026,3 hPa 0,0 l/m 0 min 0 min 0 W/m 6,4 km/h (2 Bft) 93,62 %
10.11.2021 00:56 4,5 C 3,9 C 1,7 C 91 % 1026,3 hPa 0,0 l/m 0 min 0 min 0 W/m 6,4 km/h (2 Bft) 93,48 %
10.11.2021 00:58 4,5 C 3,9 C 1,7 C 91 % 1026,2 hPa 0,0 l/m 0 min 0 min 0 W/m 6,4 km/h (2 Bft) 91,49 %
10.11.2021 01:00 4,5 C 3,9 C 1,7 C 91 % 1026,1 hPa 0,0 l/m 0 min 0 min 0 W/m 6,4 km/h (2 Bft) 95,74 %
10.11.2021 01:02 4,5 C 3,9 C 1,7 C 91 % 1026,1 hPa 0,0 l/m 0 min 0 min 0 W/m 6,4 km/h (2 Bft) 95,83 %
10.11.2021 01:04 4,5 C 3,9 C 1,7 C 91 % 1026,1 hPa 0,0 l/m 0 min 0 min 0 W/m 3,2 km/h (1 Bft) 94,29 %
10.11.2021 01:06 4,5 C 3,9 C 1,7 C 91 % 1026,0 hPa 0,0 l/m 0 min 0 min 0 W/m 6,4 km/h (2 Bft) 95,83 %
10.11.2021 01:08 4,5 C 3,9 C 1,7 C 91 % 1026,1 hPa 0,0 l/m 0 min 0 min 0 W/m 3,2 km/h (1 Bft) 95,74 %
10.11.2021 01:10 4,5 C 3,9 C 1,7 C 91 % 1026,1 hPa 0,0 l/m 0 min 0 min 0 W/m 6,4 km/h (2 Bft) 93,48 %
10.11.2021 01:12 4,5 C 3,9 C 1,7 C 91 % 1026,0 hPa 0,0 l/m 0 min 0 min 0 W/m 12,9 km/h (3 Bft) 95,74 %
10.11.2021 01:14 4,5 C 3,9 C 1,7 C 91 % 1026,0 hPa 0,0 l/m 0 min 0 min 0 W/m 3,2 km/h (1 Bft) 95,74 %
10.11.2021 01:16 4,5 C 3,9 C 1,7 C 91 % 1025,9 hPa 0,0 l/m 0 min 0 min 0 W/m 6,4 km/h (2 Bft) 95,74 %
10.11.2021 01:18 4,4 C 3,9 C 1,7 C 91 % 1025,9 hPa 0,0 l/m 0 min 0 min 0 W/m 6,4 km/h (2 Bft) 97,87 %
10.11.2021 01:20 4,4 C 3,9 C 1,7 C 91 % 1025,8 hPa 0,0 l/m 0 min 0 min 0 W/m 6,4 km/h (2 Bft) 95,74 %
10.11.2021 01:22 4,4 C 3,9 C 1,7 C 91 % 1025,8 hPa 0,0 l/m 0 min 0 min 0 W/m 3,2 km/h (1 Bft) 93,48 %
10.11.2021 01:24 4,4 C 3,9 C 1,7 C 91 % 1025,8 hPa 0,0 l/m 0 min 0 min 0 W/m 3,2 km/h (1 Bft) 97,87 %
10.11.2021 01:26 4,4 C 3,9 C 1,7 C 91 % 1025,8 hPa 0,0 l/m 0 min 0 min 0 W/m 3,2 km/h (1 Bft) 95,74 %
10.11.2021 01:28 4,4 C 3,9 C 1,7 C 91 % 1025,8 hPa 0,0 l/m 0 min 0 min 0 W/m 3,2 km/h (1 Bft) 97,87 %
10.11.2021 01:30 4,4 C 3,9 C 1,7 C 91 % 1025,7 hPa 0,0 l/m 0 min 0 min 0 W/m 3,2 km/h (1 Bft) 97,87 %
10.11.2021 01:32 4,4 C 3,3 C 1,7 C 91 % 1025,7 hPa 0,0 l/m 0 min 0 min 0 W/m 3,2 km/h (1 Bft) 100,00 %
10.11.2021 01:34 4,4 C 3,3 C 1,7 C 91 % 1025,7 hPa 0,0 l/m 0 min 0 min 0 W/m 3,2 km/h (1 Bft) 100,00 %
10.11.2021 01:36 4,3 C 3,3 C 1,7 C 91 % 1025,8 hPa 0,0 l/m 0 min 0 min 0 W/m 6,4 km/h (2 Bft) 97,87 %
10.11.2021 01:38 4,3 C 3,9 C 1,7 C 91 % 1025,8 hPa 0,0 l/m 0 min 0 min 0 W/m 6,4 km/h (2 Bft) 100,00 %
10.11.2021 01:40 4,3 C 3,9 C 1,7 C 91 % 1025,8 hPa 0,0 l/m 0 min 0 min 0 W/m 6,4 km/h (2 Bft) 100,00 %
10.11.2021 01:42 4,3 C 3,9 C 1,7 C 91 % 1025,8 hPa 0,0 l/m 0 min 0 min 0 W/m 3,2 km/h (1 Bft) 100,00 %
10.11.2021 01:44 4,3 C 3,9 C 1,7 C 91 % 1025,8 hPa 0,0 l/m 0 min 0 min 0 W/m 16,1 km/h (3 Bft) 100,00 %
10.11.2021 01:46 4,3 C 3,9 C 1,7 C 91 % 1025,9 hPa 0,0 l/m 0 min 0 min 0 W/m 6,4 km/h (2 Bft) 100,00 %
10.11.2021 01:48 4,3 C 3,9 C 1,7 C 91 % 1026,0 hPa 0,0 l/m 0 min 0 min 0 W/m 6,4 km/h (2 Bft) 97,87 %
10.11.2021 01:50 4,3 C 3,9 C 1,7 C 91 % 1025,9 hPa 0,0 l/m 0 min 0 min 0 W/m 6,4 km/h (2 Bft) 100,00 %
10.11.2021 01:52 4,3 C 3,9 C 1,7 C 91 % 1025,9 hPa 0,0 l/m 0 min 0 min 0 W/m 6,4 km/h (2 Bft) 100,00 %
10.11.2021 01:54 4,3 C 3,9 C 1,7 C 91 % 1025,9 hPa 0,0 l/m 0 min 0 min 0 W/m 12,9 km/h (3 Bft) 100,00 %
10.11.2021 01:56 4,3 C 3,9 C 1,7 C 91 % 1025,9 hPa 0,0 l/m 0 min 0 min 0 W/m 6,4 km/h (2 Bft) 100,00 %
10.11.2021 01:58 4,3 C 3,9 C 1,7 C 91 % 1025,9 hPa 0,0 l/m 0 min 0 min 0 W/m 6,4 km/h (2 Bft) 100,00 %
10.11.2021 02:00 4,3 C 3,3 C 1,7 C 91 % 1025,8 hPa 0,0 l/m 0 min 0 min 0 W/m 3,2 km/h (1 Bft) 100,00 %
10.11.2021 02:02 4,3 C 3,3 C 1,7 C 92 % 1025,8 hPa 0,0 l/m 0 min 0 min 0 W/m 6,4 km/h (2 Bft) 100,00 %
10.11.2021 02:04 4,2 C 3,3 C 1,7 C 92 % 1025,7 hPa 0,0 l/m 0 min 0 min 0 W/m 12,9 km/h (3 Bft) 100,00 %
10.11.2021 02:06 4,2 C 3,3 C 1,7 C 92 % 1025,7 hPa 0,0 l/m 0 min 0 min 0 W/m 6,4 km/h (2 Bft) 97,87 %
10.11.2021 02:08 4,2 C 3,3 C 1,7 C 92 % 1025,7 hPa 0,0 l/m 0 min 0 min 0 W/m 6,4 km/h (2 Bft) 100,00 %
10.11.2021 02:10 4,1 C 3,3 C 1,7 C 92 % 1025,7 hPa 0,0 l/m 0 min 0 min 0 W/m 6,4 km/h (2 Bft) 97,87 %
10.11.2021 02:12 4,1 C 3,3 C 1,7 C 92 % 1025,7 hPa 0,0 l/m 0 min 0 min 0 W/m 3,2 km/h (1 Bft) 100,00 %
10.11.2021 02:14 4,1 C 3,3 C 1,7 C 92 % 1025,8 hPa 0,0 l/m 0 min 0 min 0 W/m 6,4 km/h (2 Bft) 95,74 %
10.11.2021 02:16 4,1 C 3,3 C 1,7 C 92 % 1025,9 hPa 0,0 l/m 0 min 0 min 0 W/m 6,4 km/h (2 Bft) 97,87 %
10.11.2021 02:18 4,1 C 3,3 C 1,7 C 92 % 1025,8 hPa 0,0 l/m 0 min 0 min 0 W/m 6,4 km/h (2 Bft) 97,87 %
10.11.2021 02:20 4,1 C 3,3 C 1,7 C 91 % 1025,7 hPa 0,0 l/m 0 min 0 min 0 W/m 6,4 km/h (2 Bft) 97,83 %
10.11.2021 02:22 4,0 C 3,3 C 1,7 C 91 % 1025,7 hPa 0,0 l/m 0 min 0 min 0 W/m 6,4 km/h (2 Bft) 97,87 %
10.11.2021 02:24 4,0 C 3,3 C 1,7 C 91 % 1025,7 hPa 0,0 l/m 0 min 0 min 0 W/m 12,9 km/h (3 Bft) 97,87 %
10.11.2021 02:26 4,0 C 3,3 C 1,7 C 91 % 1025,6 hPa 0,0 l/m 0 min 0 min 0 W/m 12,9 km/h (3 Bft) 97,87 %
10.11.2021 02:28 4,0 C 3,3 C 1,1 C 91 % 1025,6 hPa 0,0 l/m 0 min 0 min 0 W/m 6,4 km/h (2 Bft) 97,87 %
10.11.2021 02:30 4,0 C 3,3 C 1,1 C 91 % 1025,6 hPa 0,0 l/m 0 min 0 min 0 W/m 6,4 km/h (2 Bft) 97,87 %
10.11.2021 02:32 4,0 C 3,3 C 1,1 C 92 % 1025,6 hPa 0,0 l/m 0 min 0 min 0 W/m 3,2 km/h (1 Bft) 97,83 %
10.11.2021 02:34 4,0 C 3,3 C 1,1 C 92 % 1025,6 hPa 0,0 l/m 0 min 0 min 0 W/m 3,2 km/h (1 Bft) 95,74 %
10.11.2021 02:36 3,9 C 3,3 C 1,1 C 92 % 1025,6 hPa 0,0 l/m 0 min 0 min 0 W/m 3,2 km/h (1 Bft) 97,87 %
10.11.2021 02:38 3,9 C 3,3 C 1,1 C 92 % 1025,6 hPa 0,0 l/m 0 min 0 min 0 W/m 6,4 km/h (2 Bft) 97,87 %
10.11.2021 02:40 3,9 C 3,3 C 1,1 C 92 % 1025,6 hPa 0,0 l/m 0 min 0 min 0 W/m 3,2 km/h (1 Bft) 97,87 %
10.11.2021 02:42 3,9 C 3,3 C 1,1 C 92 % 1025,5 hPa 0,0 l/m 0 min 0 min 0 W/m 3,2 km/h (1 Bft) 97,87 %
10.11.2021 02:44 3,9 C 3,3 C 1,1 C 92 % 1025,5 hPa 0,0 l/m 0 min 0 min 0 W/m 3,2 km/h (1 Bft) 100,00 %
10.11.2021 02:46 3,9 C 2,8 C 1,1 C 92 % 1025,5 hPa 0,0 l/m 0 min 0 min 0 W/m 3,2 km/h (1 Bft) 100,00 %
10.11.2021 02:48 3,8 C 2,8 C 1,1 C 92 % 1025,5 hPa 0,0 l/m 0 min 0 min 0 W/m 6,4 km/h (2 Bft) 100,00 %
10.11.2021 02:50 3,8 C 2,8 C 1,1 C 92 % 1025,5 hPa 0,0 l/m 0 min 0 min 0 W/m 6,4 km/h (2 Bft) 100,00 %
10.11.2021 02:52 3,8 C 2,8 C 1,1 C 92 % 1025,5 hPa 0,0 l/m 0 min 0 min 0 W/m 3,2 km/h (1 Bft) 100,00 %
10.11.2021 02:54 3,8 C 2,8 C 1,1 C 92 % 1025,5 hPa 0,0 l/m 0 min 0 min 0 W/m 3,2 km/h (1 Bft) 95,74 %
10.11.2021 02:56 3,8 C 2,8 C 1,1 C 92 % 1025,5 hPa 0,0 l/m 0 min 0 min 0 W/m 6,4 km/h (2 Bft) 97,83 %
10.11.2021 02:58 3,7 C 2,8 C 1,1 C 92 % 1025,4 hPa 0,0 l/m 0 min 0 min 0 W/m 6,4 km/h (2 Bft) 100,00 %
10.11.2021 03:00 3,7 C 2,8 C 1,1 C 92 % 1025,4 hPa 0,0 l/m 0 min 0 min 0 W/m 3,2 km/h (1 Bft) 100,00 %
10.11.2021 03:02 3,7 C 2,8 C 1,1 C 92 % 1025,3 hPa 0,0 l/m 0 min 0 min 0 W/m 3,2 km/h (1 Bft) 100,00 %
10.11.2021 03:04 3,6 C 2,8 C 1,1 C 92 % 1025,3 hPa 0,0 l/m 0 min 0 min 0 W/m 3,2 km/h (1 Bft) 97,87 %
10.11.2021 03:06 3,6 C 2,8 C 1,1 C 92 % 1025,2 hPa 0,0 l/m 0 min 0 min 0 W/m 6,4 km/h (2 Bft) 97,87 %
10.11.2021 03:08 3,6 C 2,8 C 1,1 C 92 % 1025,2 hPa 0,0 l/m 0 min 0 min 0 W/m 3,2 km/h (1 Bft) 97,83 %
10.11.2021 03:10 3,6 C 2,8 C 1,1 C 92 % 1025,2 hPa 0,0 l/m 0 min 0 min 0 W/m 6,4 km/h (2 Bft) 97,87 %
10.11.2021 03:12 3,6 C 2,8 C 1,1 C 92 % 1025,2 hPa 0,0 l/m 0 min 0 min 0 W/m 12,9 km/h (3 Bft) 95,74 %
10.11.2021 03:14 3,5 C 2,8 C 1,1 C 92 % 1025,2 hPa 0,0 l/m 0 min 0 min 0 W/m 6,4 km/h (2 Bft) 97,87 %
10.11.2021 03:16 3,5 C 2,8 C 1,1 C 92 % 1025,2 hPa 0,0 l/m 0 min 0 min 0 W/m 6,4 km/h (2 Bft) 97,87 %
10.11.2021 03:18 3,5 C 2,8 C 1,1 C 92 % 1025,2 hPa 0,0 l/m 0 min 0 min 0 W/m 6,4 km/h (2 Bft) 97,87 %
10.11.2021 03:20 3,5 C 2,8 C 1,1 C 92 % 1025,1 hPa 0,0 l/m 0 min 0 min 0 W/m 3,2 km/h (1 Bft) 95,65 %
10.11.2021 03:22 3,5 C 2,8 C 1,1 C 92 % 1025,1 hPa 0,0 l/m 0 min 0 min 0 W/m 6,4 km/h (2 Bft) 97,87 %
10.11.2021 03:24 3,5 C 2,8 C 1,1 C 92 % 1025,1 hPa 0,0 l/m 0 min 0 min 0 W/m 16,1 km/h (3 Bft) 97,87 %
10.11.2021 03:26 3,5 C 2,8 C 1,1 C 92 % 1025,1 hPa 0,0 l/m 0 min 0 min 0 W/m 6,4 km/h (2 Bft) 97,87 %
10.11.2021 03:28 3,5 C 2,8 C 1,1 C 92 % 1025,2 hPa 0,0 l/m 0 min 0 min 0 W/m 6,4 km/h (2 Bft) 97,87 %
10.11.2021 03:30 3,5 C 2,8 C 1,1 C 92 % 1025,1 hPa 0,0 l/m 0 min 0 min 0 W/m 12,9 km/h (3 Bft) 97,87 %
10.11.2021 03:32 3,5 C 2,8 C 1,1 C 92 % 1025,1 hPa 0,0 l/m 0 min 0 min 0 W/m 12,9 km/h (3 Bft) 97,83 %
10.11.2021 03:34 3,5 C 2,8 C 1,1 C 92 % 1025,1 hPa 0,0 l/m 0 min 0 min 0 W/m 12,9 km/h (3 Bft) 97,87 %
10.11.2021 03:36 3,5 C 2,8 C 1,1 C 92 % 1025,2 hPa 0,0 l/m 0 min 0 min 0 W/m 6,4 km/h (2 Bft) 95,74 %
10.11.2021 03:38 3,5 C 2,8 C 1,1 C 92 % 1025,2 hPa 0,0 l/m 0 min 0 min 0 W/m 12,9 km/h (3 Bft) 97,87 %
10.11.2021 03:40 3,5 C 3,3 C 1,1 C 92 % 1025,2 hPa 0,0 l/m 0 min 0 min 0 W/m 6,4 km/h (2 Bft) 100,00 %
10.11.2021 03:42 3,5 C 3,3 C 1,1 C 92 % 1025,2 hPa 0,0 l/m 0 min 0 min 0 W/m 16,1 km/h (3 Bft) 100,00 %
10.11.2021 03:44 3,5 C 3,3 C 1,1 C 92 % 1025,1 hPa 0,0 l/m 0 min 0 min 0 W/m 16,1 km/h (3 Bft) 100,00 %
10.11.2021 03:46 3,5 C 3,3 C 1,1 C 92 % 1025,1 hPa 0,0 l/m 0 min 0 min 0 W/m 6,4 km/h (2 Bft) 100,00 %
10.11.2021 03:48 3,5 C 3,3 C 1,1 C 92 % 1025,2 hPa 0,0 l/m 0 min 0 min 0 W/m 6,4 km/h (2 Bft) 100,00 %
10.11.2021 03:50 3,5 C 3,3 C 1,1 C 92 % 1025,2 hPa 0,0 l/m 0 min 0 min 0 W/m 12,9 km/h (3 Bft) 100,00 %
10.11.2021 03:52 3,5 C 3,3 C 1,1 C 92 % 1025,2 hPa 0,0 l/m 0 min 0 min 0 W/m 6,4 km/h (2 Bft) 100,00 %
10.11.2021 03:54 3,5 C 3,3 C 1,1 C 92 % 1025,2 hPa 0,0 l/m 0 min 0 min 0 W/m 3,2 km/h (1 Bft) 97,87 %
10.11.2021 03:56 3,5 C 3,3 C 1,1 C 92 % 1025,2 hPa 0,0 l/m 0 min 0 min 0 W/m 6,4 km/h (2 Bft) 95,65 %
10.11.2021 03:58 3,5 C 3,3 C 1,1 C 92 % 1025,2 hPa 0,0 l/m 0 min 0 min 0 W/m 12,9 km/h (3 Bft) 95,74 %
10.11.2021 04:00 3,6 C 3,3 C 1,1 C 92 % 1025,3 hPa 0,0 l/m 0 min 0 min 0 W/m 16,1 km/h (3 Bft) 93,62 %
10.11.2021 04:02 3,5 C 3,3 C 1,1 C 92 % 1025,3 hPa 0,0 l/m 0 min 0 min 0 W/m 12,9 km/h (3 Bft) 100,00 %
10.11.2021 04:04 3,5 C 3,3 C 1,1 C 92 % 1025,3 hPa 0,0 l/m 0 min 0 min 0 W/m 12,9 km/h (3 Bft) 93,02 %
10.11.2021 04:06 3,6 C 3,3 C 1,1 C 92 % 1025,3 hPa 0,0 l/m 0 min 0 min 0 W/m 12,9 km/h (3 Bft) 95,65 %
10.11.2021 04:08 3,6 C 3,3 C 1,1 C 92 % 1025,3 hPa 0,0 l/m 0 min 0 min 0 W/m 6,4 km/h (2 Bft) 93,62 %
10.11.2021 04:10 3,6 C 3,3 C 1,1 C 92 % 1025,3 hPa 0,0 l/m 0 min 0 min 0 W/m 12,9 km/h (3 Bft) 100,00 %
10.11.2021 04:12 3,6 C 2,8 C 1,1 C 92 % 1025,2 hPa 0,0 l/m 0 min 0 min 0 W/m 6,4 km/h (2 Bft) 93,62 %
10.11.2021 04:14 3,6 C 2,8 C 1,1 C 92 % 1025,3 hPa 0,0 l/m 0 min 0 min 0 W/m 6,4 km/h (2 Bft) 93,62 %
10.11.2021 04:16 3,5 C 2,8 C 1,1 C 92 % 1025,3 hPa 0,0 l/m 0 min 0 min 0 W/m 6,4 km/h (2 Bft) 96,30 %
10.11.2021 04:18 3,5 C 2,8 C 1,1 C 92 % 1025,3 hPa 0,0 l/m 0 min 0 min 0 W/m 3,2 km/h (1 Bft) 95,92 %
10.11.2021 04:20 3,5 C 2,8 C 1,1 C 92 % 1025,2 hPa 0,0 l/m 0 min 0 min 0 W/m 3,2 km/h (1 Bft) 97,96 %
10.11.2021 04:22 3,5 C 2,8 C 1,1 C 92 % 1025,3 hPa 0,0 l/m 0 min 0 min 0 W/m 6,4 km/h (2 Bft) 95,74 %
10.11.2021 04:24 3,5 C 2,8 C 1,1 C 92 % 1025,3 hPa 0,0 l/m 0 min 0 min 0 W/m 6,4 km/h (2 Bft) 93,62 %
10.11.2021 04:26 3,5 C 2,8 C 1,1 C 92 % 1025,3 hPa 0,0 l/m 0 min 0 min 0 W/m 6,4 km/h (2 Bft) 97,83 %
10.11.2021 04:28 3,5 C 2,8 C 1,1 C 92 % 1025,3 hPa 0,0 l/m 0 min 0 min 0 W/m 6,4 km/h (2 Bft) 95,74 %
10.11.2021 04:30 3,5 C 2,8 C 1,1 C 92 % 1025,3 hPa 0,0 l/m 0 min 0 min 0 W/m 6,4 km/h (2 Bft) 97,87 %
10.11.2021 04:32 3,4 C 2,8 C 1,1 C 92 % 1025,3 hPa 0,0 l/m 0 min 0 min 0 W/m 6,4 km/h (2 Bft) 97,87 %
10.11.2021 04:34 3,4 C 2,8 C 1,1 C 92 % 1025,2 hPa 0,0 l/m 0 min 0 min 0 W/m 9,7 km/h (2 Bft) 95,74 %
10.11.2021 04:36 3,4 C 2,8 C 1,1 C 92 % 1025,2 hPa 0,0 l/m 0 min 0 min 0 W/m 6,4 km/h (2 Bft) 95,74 %
10.11.2021 04:38 3,4 C 2,8 C 1,1 C 92 % 1025,3 hPa 0,0 l/m 0 min 0 min 0 W/m 3,2 km/h (1 Bft) 97,83 %
10.11.2021 04:40 3,4 C 2,8 C 1,1 C 92 % 1025,3 hPa 0,0 l/m 0 min 0 min 0 W/m 3,2 km/h (1 Bft) 97,87 %
10.11.2021 04:42 3,4 C 2,8 C 1,1 C 92 % 1025,4 hPa 0,0 l/m 0 min 0 min 0 W/m 6,4 km/h (2 Bft) 95,74 %
10.11.2021 04:44 3,3 C 2,2 C 0,6 C 92 % 1025,5 hPa 0,0 l/m 0 min 0 min 0 W/m 6,4 km/h (2 Bft) 95,74 %
10.11.2021 04:46 3,3 C 2,2 C 0,6 C 92 % 1025,5 hPa 0,0 l/m 0 min 0 min 0 W/m 3,2 km/h (1 Bft) 95,74 %
10.11.2021 04:48 3,3 C 2,2 C 0,6 C 92 % 1025,4 hPa 0,0 l/m 0 min 0 min 0 W/m 3,2 km/h (1 Bft) 100,00 %
10.11.2021 04:50 3,3 C 2,2 C 0,6 C 92 % 1025,4 hPa 0,0 l/m 0 min 0 min 0 W/m 3,2 km/h (1 Bft) 100,00 %
10.11.2021 04:52 3,3 C 2,2 C 0,6 C 92 % 1025,4 hPa 0,0 l/m 0 min 0 min 0 W/m 3,2 km/h (1 Bft) 95,74 %
10.11.2021 04:54 3,3 C 2,2 C 0,6 C 92 % 1025,4 hPa 0,0 l/m 0 min 0 min 0 W/m 6,4 km/h (2 Bft) 100,00 %
10.11.2021 04:56 3,2 C 2,2 C 0,6 C 92 % 1025,4 hPa 0,0 l/m 0 min 0 min 0 W/m 3,2 km/h (1 Bft) 100,00 %
10.11.2021 04:58 3,2 C 2,2 C 0,6 C 92 % 1025,4 hPa 0,0 l/m 0 min 0 min 0 W/m 6,4 km/h (2 Bft) 52,38 %
10.11.2021 05:00 3,1 C 2,2 C 0,6 C 92 % 1025,4 hPa 0,0 l/m 0 min 0 min 0 W/m 3,2 km/h (1 Bft) 100,00 %
10.11.2021 05:02 3,1 C 2,2 C 0,6 C 92 % 1025,4 hPa 0,0 l/m 0 min 0 min 0 W/m 3,2 km/h (1 Bft) 95,74 %
10.11.2021 05:04 3,1 C 2,2 C 0,6 C 92 % 1025,5 hPa 0,0 l/m 0 min 0 min 0 W/m 6,4 km/h (2 Bft) 100,00 %
10.11.2021 05:06 3,1 C 2,2 C 0,6 C 92 % 1025,4 hPa 0,0 l/m 0 min 0 min 0 W/m 3,2 km/h (1 Bft) 100,00 %
10.11.2021 05:08 3,1 C 2,2 C 0,6 C 92 % 1025,4 hPa 0,0 l/m 0 min 0 min 0 W/m 0,0 km/h (0 Bft) 100,00 %
10.11.2021 05:10 3,0 C 2,2 C 0,6 C 92 % 1025,3 hPa 0,0 l/m 0 min 0 min 0 W/m 3,2 km/h (1 Bft) 97,87 %
10.11.2021 05:12 3,0 C 2,2 C 0,6 C 92 % 1025,3 hPa 0,0 l/m 0 min 0 min 0 W/m 0,0 km/h (0 Bft) 97,83 %
10.11.2021 05:14 3,0 C 2,2 C 0,6 C 92 % 1025,3 hPa 0,0 l/m 0 min 0 min 0 W/m 0,0 km/h (0 Bft) 95,74 %
10.11.2021 05:16 3,0 C 2,2 C 0,6 C 92 % 1025,3 hPa 0,0 l/m 0 min 0 min 0 W/m 0,0 km/h (0 Bft) 95,74 %
10.11.2021 05:18 3,0 C 1,7 C 0,0 C 92 % 1025,2 hPa 0,0 l/m 0 min 0 min 0 W/m 3,2 km/h (1 Bft) 97,87 %
10.11.2021 05:20 3,0 C 1,7 C 0,0 C 92 % 1025,2 hPa 0,0 l/m 0 min 0 min 0 W/m 0,0 km/h (0 Bft) 97,87 %
10.11.2021 05:22 2,9 C 1,7 C 0,0 C 92 % 1025,2 hPa 0,0 l/m 0 min 0 min 0 W/m 0,0 km/h (0 Bft) 97,87 %
10.11.2021 05:24 2,9 C 1,7 C 0,0 C 92 % 1025,2 hPa 0,0 l/m 0 min 0 min 0 W/m 0,0 km/h (0 Bft) 97,83 %
10.11.2021 05:26 2,9 C 1,7 C 0,0 C 92 % 1025,3 hPa 0,0 l/m 0 min 0 min 0 W/m 0,0 km/h (0 Bft) 95,74 %
10.11.2021 05:28 2,9 C 1,7 C 0,0 C 92 % 1025,3 hPa 0,0 l/m 0 min 0 min 0 W/m 0,0 km/h (0 Bft) 97,87 %
10.11.2021 05:30 2,8 C 1,7 C 0,0 C 92 % 1025,3 hPa 0,0 l/m 0 min 0 min 0 W/m 0,0 km/h (0 Bft) 97,87 %
10.11.2021 05:32 2,8 C 1,7 C 0,0 C 92 % 1025,3 hPa 0,0 l/m 0 min 0 min 0 W/m 3,2 km/h (1 Bft) 97,87 %
10.11.2021 05:34 2,8 C 1,7 C 0,0 C 92 % 1025,3 hPa 0,0 l/m 0 min 0 min 0 W/m 6,4 km/h (2 Bft) 97,87 %
10.11.2021 05:36 2,8 C 1,7 C 0,0 C 92 % 1025,4 hPa 0,0 l/m 0 min 0 min 0 W/m 0,0 km/h (0 Bft) 95,65 %
10.11.2021 05:38 2,7 C 1,7 C 0,0 C 92 % 1025,5 hPa 0,0 l/m 0 min 0 min 0 W/m 0,0 km/h (0 Bft) 95,74 %
10.11.2021 05:40 2,7 C 1,7 C 0,0 C 92 % 1025,5 hPa 0,0 l/m 0 min 0 min 0 W/m 0,0 km/h (0 Bft) 95,74 %
10.11.2021 05:42 2,7 C 1,7 C 0,0 C 92 % 1025,5 hPa 0,0 l/m 0 min 0 min 0 W/m 0,0 km/h (0 Bft) 95,74 %
10.11.2021 05:44 2,7 C 1,7 C 0,0 C 92 % 1025,5 hPa 0,0 l/m 0 min 0 min 0 W/m 0,0 km/h (0 Bft) 95,74 %
10.11.2021 05:46 2,6 C 1,7 C 0,0 C 92 % 1025,5 hPa 0,0 l/m 0 min 0 min 0 W/m 0,0 km/h (0 Bft) 93,62 %
10.11.2021 05:48 2,6 C 1,7 C 0,0 C 92 % 1025,5 hPa 0,0 l/m 0 min 0 min 0 W/m 0,0 km/h (0 Bft) 54,35 %
10.11.2021 05:50 2,6 C 1,7 C 0,0 C 92 % 1025,4 hPa 0,0 l/m 0 min 0 min 0 W/m 0,0 km/h (0 Bft) 97,87 %
10.11.2021 05:52 2,6 C 1,7 C 0,0 C 93 % 1025,4 hPa 0,0 l/m 0 min 0 min 0 W/m 0,0 km/h (0 Bft) 95,74 %
10.11.2021 05:54 2,6 C 1,7 C 0,0 C 93 % 1025,4 hPa 0,0 l/m 0 min 0 min 0 W/m 0,0 km/h (0 Bft) 97,87 %
10.11.2021 05:56 2,5 C 1,7 C 0,0 C 93 % 1025,4 hPa 0,0 l/m 0 min 0 min 0 W/m 0,0 km/h (0 Bft) 97,87 %
10.11.2021 05:58 2,5 C 1,7 C 0,0 C 93 % 1025,3 hPa 0,0 l/m 0 min 0 min 0 W/m 0,0 km/h (0 Bft) 97,87 %
10.11.2021 06:00 2,5 C 1,7 C 0,0 C 92 % 1025,3 hPa 0,0 l/m 0 min 0 min 0 W/m 0,0 km/h (0 Bft) 95,65 %
10.11.2021 06:02 2,5 C 1,7 C 0,0 C 92 % 1025,2 hPa 0,0 l/m 0 min 0 min 0 W/m 0,0 km/h (0 Bft) 97,87 %
10.11.2021 06:04 2,5 C 1,1 C 0,0 C 92 % 1025,0 hPa 0,0 l/m 0 min 0 min 0 W/m 0,0 km/h (0 Bft) 97,87 %
10.11.2021 06:06 2,5 C 1,1 C 0,0 C 92 % 1025,0 hPa 0,0 l/m 0 min 0 min 0 W/m 0,0 km/h (0 Bft) 100,00 %
10.11.2021 06:08 2,4 C 1,1 C 0,0 C 92 % 1024,9 hPa 0,0 l/m 0 min 0 min 0 W/m 0,0 km/h (0 Bft) 100,00 %
10.11.2021 06:10 2,4 C 1,1 C -0,6 C 92 % 1025,0 hPa 0,0 l/m 0 min 0 min 0 W/m 0,0 km/h (0 Bft) 100,00 %
10.11.2021 06:12 2,4 C 1,1 C -0,6 C 93 % 1025,1 hPa 0,0 l/m 0 min 0 min 0 W/m 0,0 km/h (0 Bft) 100,00 %
10.11.2021 06:14 2,4 C 1,1 C 0,0 C 93 % 1025,2 hPa 0,0 l/m 0 min 0 min 0 W/m 0,0 km/h (0 Bft) 97,83 %
10.11.2021 06:16 2,3 C 1,1 C 0,0 C 93 % 1025,1 hPa 0,0 l/m 0 min 0 min 0 W/m 0,0 km/h (0 Bft) 100,00 %
10.11.2021 06:18 2,3 C 1,1 C 0,0 C 93 % 1025,0 hPa 0,0 l/m 0 min 0 min 0 W/m 0,0 km/h (0 Bft) 100,00 %
10.11.2021 06:20 2,3 C 1,1 C 0,0 C 93 % 1025,0 hPa 0,0 l/m 0 min 0 min 0 W/m 0,0 km/h (0 Bft) 100,00 %
10.11.2021 06:22 2,3 C 1,1 C -0,6 C 93 % 1025,0 hPa 0,0 l/m 0 min 0 min 0 W/m 0,0 km/h (0 Bft) 100,00 %
10.11.2021 06:24 2,3 C 1,1 C -0,6 C 93 % 1025,1 hPa 0,0 l/m 0 min 0 min 0 W/m 0,0 km/h (0 Bft) 97,87 %
10.11.2021 06:26 2,2 C 1,1 C -0,6 C 93 % 1025,0 hPa 0,0 l/m 0 min 0 min 0 W/m 0,0 km/h (0 Bft) 97,83 %
10.11.2021 06:28 2,2 C 1,1 C -0,6 C 93 % 1024,8 hPa 0,0 l/m 0 min 0 min 0 W/m 0,0 km/h (0 Bft) 100,00 %
10.11.2021 06:30 2,1 C 1,1 C -0,6 C 93 % 1024,8 hPa 0,0 l/m 0 min 0 min 0 W/m 0,0 km/h (0 Bft) 100,00 %
10.11.2021 06:32 2,1 C 0,6 C -0,6 C 93 % 1024,8 hPa 0,0 l/m 0 min 0 min 0 W/m 0,0 km/h (0 Bft) 100,00 %
10.11.2021 06:34 2,1 C 0,6 C -0,6 C 93 % 1024,9 hPa 0,0 l/m 0 min 0 min 0 W/m 0,0 km/h (0 Bft) 97,87 %
10.11.2021 06:36 2,0 C 0,6 C -0,6 C 93 % 1025,0 hPa 0,0 l/m 0 min 0 min 0 W/m 0,0 km/h (0 Bft) 100,00 %
10.11.2021 06:38 2,0 C 0,6 C -0,6 C 93 % 1025,0 hPa 0,0 l/m 0 min 0 min 0 W/m 0,0 km/h (0 Bft) 100,00 %
10.11.2021 06:40 2,0 C 0,6 C -0,6 C 93 % 1025,0 hPa 0,0 l/m 0 min 0 min 0 W/m 0,0 km/h (0 Bft) 100,00 %
10.11.2021 06:42 1,9 C 0,6 C -0,6 C 93 % 1025,1 hPa 0,0 l/m 0 min 0 min 0 W/m 0,0 km/h (0 Bft) 100,00 %
10.11.2021 06:44 1,9 C 0,6 C -0,6 C 93 % 1025,1 hPa 0,0 l/m 0 min 0 min 0 W/m 0,0 km/h (0 Bft) 100,00 %
10.11.2021 06:46 1,9 C 0,6 C -0,6 C 93 % 1025,2 hPa 0,0 l/m 0 min 0 min 0 W/m 0,0 km/h (0 Bft) 100,00 %
10.11.2021 06:48 1,9 C 0,6 C -0,6 C 93 % 1025,2 hPa 0,0 l/m 0 min 0 min 0 W/m 0,0 km/h (0 Bft) 100,00 %
10.11.2021 06:50 1,8 C 0,6 C -0,6 C 93 % 1025,3 hPa 0,0 l/m 0 min 0 min 0 W/m 0,0 km/h (0 Bft) 100,00 %
10.11.2021 06:52 1,8 C 1,1 C -0,6 C 93 % 1025,4 hPa 0,0 l/m 0 min 0 min 0 W/m 0,0 km/h (0 Bft) 100,00 %
10.11.2021 06:54 1,8 C 1,1 C -0,6 C 93 % 1025,3 hPa 0,0 l/m 0 min 0 min 0 W/m 0,0 km/h (0 Bft) 100,00 %
10.11.2021 06:56 1,8 C 1,1 C -0,6 C 93 % 1025,3 hPa 0,0 l/m 0 min 0 min 0 W/m 0,0 km/h (0 Bft) 100,00 %
10.11.2021 06:58 1,7 C 1,1 C -0,6 C 93 % 1025,1 hPa 0,0 l/m 0 min 0 min 0 W/m 0,0 km/h (0 Bft) 97,87 %
10.11.2021 07:00 1,7 C 1,1 C -0,6 C 93 % 1025,1 hPa 0,0 l/m 0 min 0 min 0 W/m 0,0 km/h (0 Bft) 100,00 %
10.11.2021 07:02 1,7 C 1,1 C -0,6 C 93 % 1025,0 hPa 0,0 l/m 0 min 0 min 0 W/m 0,0 km/h (0 Bft) 100,00 %
10.11.2021 07:04 1,7 C 1,1 C -0,6 C 93 % 1025,1 hPa 0,0 l/m 0 min 0 min 0 W/m 0,0 km/h (0 Bft) 100,00 %
10.11.2021 07:06 1,7 C 1,1 C -0,6 C 93 % 1025,2 hPa 0,0 l/m 0 min 0 min 0 W/m 0,0 km/h (0 Bft) 100,00 %
10.11.2021 07:08 1,7 C 1,1 C -0,6 C 93 % 1025,1 hPa 0,0 l/m 0 min 0 min 0 W/m 0,0 km/h (0 Bft) 100,00 %
10.11.2021 07:10 1,7 C 1,1 C -0,6 C 93 % 1025,1 hPa 0,0 l/m 0 min 0 min 0 W/m 0,0 km/h (0 Bft) 95,74 %
10.11.2021 07:12 1,7 C 0,6 C -0,6 C 93 % 1025,1 hPa 0,0 l/m 0 min 0 min 0 W/m 0,0 km/h (0 Bft) 100,00 %
10.11.2021 07:14 1,7 C 0,6 C -0,6 C 93 % 1025,0 hPa 0,0 l/m 0 min 0 min 0 W/m 0,0 km/h (0 Bft) 97,87 %
10.11.2021 07:16 1,7 C 0,6 C -0,6 C 93 % 1025,0 hPa 0,0 l/m 0 min 0 min 0 W/m 0,0 km/h (0 Bft) 97,87 %
10.11.2021 07:18 1,7 C 0,6 C -0,6 C 93 % 1025,0 hPa 0,0 l/m 0 min 0 min 0 W/m 0,0 km/h (0 Bft) 97,87 %
10.11.2021 07:20 1,6 C 0,6 C -0,6 C 93 % 1025,1 hPa 0,0 l/m 0 min 0 min 0 W/m 0,0 km/h (0 Bft) 95,74 %
10.11.2021 07:22 1,6 C 0,6 C -0,6 C 93 % 1025,1 hPa 0,0 l/m 0 min 0 min 0 W/m 0,0 km/h (0 Bft) 95,74 %
10.11.2021 07:24 1,6 C 0,6 C -0,6 C 93 % 1025,1 hPa 0,0 l/m 0 min 0 min 0 W/m 0,0 km/h (0 Bft) 97,83 %
10.11.2021 07:26 1,6 C 0,6 C -0,6 C 93 % 1025,1 hPa 0,0 l/m 0 min 0 min 0 W/m 0,0 km/h (0 Bft) 95,74 %
10.11.2021 07:28 1,6 C 0,6 C -0,6 C 93 % 1025,2 hPa 0,0 l/m 0 min 0 min 0 W/m 0,0 km/h (0 Bft) 95,74 %
10.11.2021 07:30 1,6 C 0,6 C -0,6 C 93 % 1025,1 hPa 0,0 l/m 0 min 0 min 0 W/m 0,0 km/h (0 Bft) 91,49 %
10.11.2021 07:32 1,6 C 0,6 C -0,6 C 93 % 1025,1 hPa 0,0 l/m 0 min 0 min 0 W/m 0,0 km/h (0 Bft) 97,87 %
10.11.2021 07:34 1,5 C 0,6 C -0,6 C 93 % 1025,1 hPa 0,0 l/m 0 min 0 min 0 W/m 0,0 km/h (0 Bft) 97,87 %
10.11.2021 07:36 1,5 C 0,6 C -0,6 C 93 % 1025,0 hPa 0,0 l/m 0 min 0 min 0 W/m 0,0 km/h (0 Bft) 95,65 %
10.11.2021 07:38 1,5 C 0,6 C -1,1 C 93 % 1025,0 hPa 0,0 l/m 0 min 0 min 0 W/m 0,0 km/h (0 Bft) 89,36 %
10.11.2021 07:40 1,5 C 0,6 C -1,1 C 93 % 1025,0 hPa 0,0 l/m 0 min 0 min 0 W/m 0,0 km/h (0 Bft) 97,87 %
10.11.2021 07:42 1,5 C 0,6 C -1,1 C 93 % 1025,1 hPa 0,0 l/m 0 min 0 min 0 W/m 0,0 km/h (0 Bft) 95,74 %
10.11.2021 07:44 1,5 C 0,6 C -1,1 C 93 % 1025,2 hPa 0,0 l/m 0 min 0 min 0 W/m 0,0 km/h (0 Bft) 95,74 %
10.11.2021 07:46 1,4 C 0,6 C -1,1 C 93 % 1025,1 hPa 0,0 l/m 0 min 0 min 0 W/m 0,0 km/h (0 Bft) 95,74 %
10.11.2021 07:48 1,4 C 0,6 C -1,1 C 93 % 1025,0 hPa 0,0 l/m 0 min 0 min 4 W/m 0,0 km/h (0 Bft) 95,65 %
10.11.2021 07:50 1,4 C 0,6 C -1,1 C 93 % 1024,9 hPa 0,0 l/m 0 min 0 min 6 W/m 0,0 km/h (0 Bft) 95,74 %
10.11.2021 07:52 1,4 C 0,6 C -1,1 C 93 % 1024,9 hPa 0,0 l/m 0 min 0 min 7 W/m 0,0 km/h (0 Bft) 95,74 %
10.11.2021 07:54 1,3 C 0,6 C -1,1 C 93 % 1024,9 hPa 0,0 l/m 0 min 0 min 7 W/m 0,0 km/h (0 Bft) 97,87 %
10.11.2021 07:56 1,3 C 0,6 C -1,1 C 93 % 1024,8 hPa 0,0 l/m 0 min 0 min 9 W/m 0,0 km/h (0 Bft) 95,74 %
10.11.2021 07:58 1,3 C 0,6 C -1,1 C 93 % 1024,8 hPa 0,0 l/m 0 min 0 min 9 W/m 0,0 km/h (0 Bft) 97,87 %
10.11.2021 08:00 1,3 C 0,6 C -1,1 C 93 % 1024,7 hPa 0,0 l/m 0 min 0 min 9 W/m 0,0 km/h (0 Bft) 97,83 %
10.11.2021 08:02 1,2 C 0,6 C -1,1 C 93 % 1024,7 hPa 0,0 l/m 0 min 0 min 10 W/m 0,0 km/h (0 Bft) 97,87 %
10.11.2021 08:04 1,2 C 0,6 C -0,6 C 93 % 1024,7 hPa 0,0 l/m 0 min 0 min 11 W/m 0,0 km/h (0 Bft) 97,87 %
10.11.2021 08:06 1,2 C 0,6 C -0,6 C 93 % 1024,7 hPa 0,0 l/m 0 min 0 min 11 W/m 0,0 km/h (0 Bft) 97,87 %
10.11.2021 08:08 1,2 C 0,6 C -0,6 C 93 % 1024,9 hPa 0,0 l/m 0 min 0 min 11 W/m 0,0 km/h (0 Bft) 97,44 %
10.11.2021 08:10 1,2 C 0,6 C -0,6 C 93 % 1025,0 hPa 0,0 l/m 0 min 0 min 11 W/m 0,0 km/h (0 Bft) 97,83 %
10.11.2021 08:12 1,3 C 1,1 C -0,6 C 93 % 1025,1 hPa 0,0 l/m 0 min 0 min 11 W/m 0,0 km/h (0 Bft) 95,74 %
10.11.2021 08:14 1,3 C 1,1 C -0,6 C 93 % 1025,2 hPa 0,0 l/m 0 min 0 min 11 W/m 0,0 km/h (0 Bft) 97,87 %
10.11.2021 08:16 1,3 C 1,1 C -0,6 C 94 % 1025,2 hPa 0,0 l/m 0 min 0 min 11 W/m 0,0 km/h (0 Bft) 91,49 %
10.11.2021 08:18 1,3 C 1,1 C -0,6 C 94 % 1025,2 hPa 0,0 l/m 0 min 0 min 11 W/m 0,0 km/h (0 Bft) 97,87 %
10.11.2021 08:20 1,4 C 1,1 C 0,0 C 94 % 1025,3 hPa 0,0 l/m 0 min 0 min 12 W/m 0,0 km/h (0 Bft) 97,87 %
10.11.2021 08:22 1,4 C 1,1 C 0,0 C 94 % 1025,3 hPa 0,0 l/m 0 min 0 min 12 W/m 0,0 km/h (0 Bft) 97,83 %
10.11.2021 08:24 1,4 C 1,1 C 0,0 C 94 % 1025,3 hPa 0,0 l/m 0 min 0 min 12 W/m 0,0 km/h (0 Bft) 97,87 %
10.11.2021 08:26 1,4 C 1,1 C 0,0 C 94 % 1025,3 hPa 0,0 l/m 0 min 0 min 14 W/m 0,0 km/h (0 Bft) 95,74 %
10.11.2021 08:28 1,5 C 1,1 C 0,0 C 94 % 1025,3 hPa 0,0 l/m 0 min 0 min 14 W/m 0,0 km/h (0 Bft) 97,87 %
10.11.2021 08:30 1,5 C 1,1 C 0,0 C 94 % 1025,2 hPa 0,0 l/m 0 min 0 min 14 W/m 0,0 km/h (0 Bft) 97,87 %
10.11.2021 08:32 1,5 C 1,1 C 0,0 C 94 % 1025,2 hPa 0,0 l/m 0 min 0 min 14 W/m 0,0 km/h (0 Bft) 97,87 %
10.11.2021 08:34 1,5 C 1,1 C -0,6 C 94 % 1025,2 hPa 0,0 l/m 0 min 0 min 14 W/m 0,0 km/h (0 Bft) 95,65 %
10.11.2021 08:36 1,5 C 1,1 C 0,0 C 94 % 1025,2 hPa 0,0 l/m 0 min 0 min 14 W/m 0,0 km/h (0 Bft) 97,87 %
10.11.2021 08:38 1,5 C 1,1 C 0,0 C 94 % 1025,3 hPa 0,0 l/m 0 min 0 min 14 W/m 0,0 km/h (0 Bft) 97,87 %
10.11.2021 08:40 1,6 C 1,1 C 0,0 C 94 % 1025,4 hPa 0,0 l/m 0 min 0 min 16 W/m 0,0 km/h (0 Bft) 100,00 %
10.11.2021 08:42 1,6 C 1,1 C 0,0 C 94 % 1025,5 hPa 0,0 l/m 0 min 0 min 16 W/m 0,0 km/h (0 Bft) 100,00 %
10.11.2021 08:44 1,6 C 1,1 C 0,0 C 94 % 1025,5 hPa 0,0 l/m 0 min 0 min 17 W/m 0,0 km/h (0 Bft) 97,87 %
10.11.2021 08:46 1,7 C 1,7 C 0,0 C 94 % 1025,5 hPa 0,0 l/m 0 min 0 min 18 W/m 0,0 km/h (0 Bft) 97,83 %
10.11.2021 08:48 1,7 C 1,7 C 0,0 C 94 % 1025,6 hPa 0,0 l/m 0 min 0 min 19 W/m 0,0 km/h (0 Bft) 100,00 %
10.11.2021 08:50 1,8 C 1,7 C 0,0 C 94 % 1025,6 hPa 0,0 l/m 0 min 0 min 19 W/m 6,4 km/h (2 Bft) 100,00 %
10.11.2021 08:52 1,9 C 1,7 C 0,0 C 94 % 1025,6 hPa 0,0 l/m 0 min 0 min 19 W/m 6,4 km/h (2 Bft) 97,87 %
10.11.2021 08:54 1,9 C 1,7 C 0,0 C 94 % 1025,6 hPa 0,0 l/m 0 min 0 min 19 W/m 3,2 km/h (1 Bft) 95,74 %
10.11.2021 08:56 2,0 C 1,7 C 0,6 C 94 % 1025,6 hPa 0,0 l/m 0 min 0 min 21 W/m 3,2 km/h (1 Bft) 97,87 %
10.11.2021 08:58 2,0 C 1,7 C 0,6 C 94 % 1025,7 hPa 0,0 l/m 0 min 0 min 22 W/m 6,4 km/h (2 Bft) 97,83 %
10.11.2021 09:00 2,0 C 2,2 C 0,6 C 94 % 1025,8 hPa 0,0 l/m 0 min 0 min 24 W/m 6,4 km/h (2 Bft) 97,87 %
10.11.2021 09:02 2,1 C 2,2 C 0,6 C 95 % 1025,8 hPa 0,0 l/m 0 min 0 min 25 W/m 12,9 km/h (3 Bft) 93,62 %
10.11.2021 09:04 2,1 C 2,2 C 0,6 C 95 % 1025,8 hPa 0,0 l/m 0 min 0 min 30 W/m 12,9 km/h (3 Bft) 97,92 %
10.11.2021 09:06 2,2 C 2,2 C 0,6 C 95 % 1025,9 hPa 0,0 l/m 0 min 0 min 28 W/m 12,9 km/h (3 Bft) 95,74 %
10.11.2021 09:08 2,3 C 2,2 C 0,6 C 95 % 1025,9 hPa 0,0 l/m 0 min 0 min 30 W/m 19,3 km/h (3 Bft) 95,65 %
10.11.2021 09:10 2,3 C 2,2 C 0,6 C 95 % 1025,8 hPa 0,0 l/m 0 min 0 min 33 W/m 6,4 km/h (2 Bft) 95,74 %
10.11.2021 09:12 2,3 C 2,2 C 0,6 C 95 % 1025,9 hPa 0,0 l/m 0 min 0 min 31 W/m 12,9 km/h (3 Bft) 97,87 %
10.11.2021 09:14 2,3 C 2,2 C 0,6 C 95 % 1025,9 hPa 0,0 l/m 0 min 0 min 33 W/m 19,3 km/h (3 Bft) 97,87 %
10.11.2021 09:16 2,4 C 2,2 C 0,6 C 95 % 1025,8 hPa 0,0 l/m 0 min 0 min 37 W/m 6,4 km/h (2 Bft) 97,87 %
10.11.2021 09:18 2,4 C 2,2 C 0,6 C 95 % 1025,8 hPa 0,0 l/m 0 min 0 min 39 W/m 6,4 km/h (2 Bft) 95,74 %
10.11.2021 09:20 2,4 C 2,2 C 0,6 C 95 % 1025,8 hPa 0,2 l/m 0 min 0 min 74 W/m 12,9 km/h (3 Bft) 97,87 %
10.11.2021 09:22 2,5 C 2,8 C 0,6 C 95 % 1025,8 hPa 0,0 l/m 0 min 0 min 73 W/m 9,7 km/h (2 Bft) 95,65 %
10.11.2021 09:24 2,5 C 2,8 C 0,6 C 95 % 1025,7 hPa 0,0 l/m 0 min 0 min 92 W/m 9,7 km/h (2 Bft) 97,87 %
10.11.2021 09:26 2,5 C 2,8 C 0,6 C 95 % 1025,7 hPa 0,0 l/m 0 min 0 min 75 W/m 6,4 km/h (2 Bft) 97,87 %
10.11.2021 09:28 2,5 C 2,8 C 1,1 C 95 % 1025,7 hPa 0,0 l/m 0 min 0 min 102 W/m 3,2 km/h (1 Bft) 97,87 %
10.11.2021 09:30 2,6 C 2,8 C 1,1 C 95 % 1025,7 hPa 0,0 l/m 2 min 0 min 131 W/m 3,2 km/h (1 Bft) 97,87 %
10.11.2021 09:32 2,6 C 2,8 C 1,1 C 95 % 1025,7 hPa 0,0 l/m 2 min 0 min 154 W/m 3,2 km/h (1 Bft) 95,65 %
10.11.2021 09:34 2,6 C 2,8 C 1,1 C 95 % 1025,8 hPa 0,0 l/m 2 min 0 min 151 W/m 6,4 km/h (2 Bft) 97,87 %
10.11.2021 09:36 2,7 C 2,8 C 1,1 C 95 % 1025,8 hPa 0,0 l/m 2 min 0 min 129 W/m 9,7 km/h (2 Bft) 93,62 %
10.11.2021 09:38 2,7 C 3,3 C 1,1 C 95 % 1025,8 hPa 0,0 l/m 2 min 0 min 131 W/m 3,2 km/h (1 Bft) 97,87 %
10.11.2021 09:40 2,8 C 3,3 C 1,1 C 95 % 1025,8 hPa 0,0 l/m 0 min 0 min 92 W/m 3,2 km/h (1 Bft) 97,87 %
10.11.2021 09:42 2,8 C 3,3 C 1,1 C 95 % 1025,8 hPa 0,0 l/m 0 min 0 min 76 W/m 9,7 km/h (2 Bft) 97,87 %
10.11.2021 09:44 2,8 C 3,3 C 1,1 C 95 % 1025,8 hPa 0,0 l/m 0 min 0 min 73 W/m 6,4 km/h (2 Bft) 97,83 %
10.11.2021 09:46 2,9 C 3,3 C 1,1 C 95 % 1025,9 hPa 0,0 l/m 0 min 0 min 62 W/m 6,4 km/h (2 Bft) 97,87 %
10.11.2021 09:48 2,9 C 3,3 C 1,1 C 95 % 1025,8 hPa 0,0 l/m 0 min 0 min 57 W/m 6,4 km/h (2 Bft) 97,87 %
10.11.2021 09:50 2,9 C 3,3 C 1,1 C 95 % 1025,8 hPa 0,0 l/m 0 min 0 min 68 W/m 3,2 km/h (1 Bft) 95,74 %
10.11.2021 09:52 2,9 C 3,3 C 1,1 C 95 % 1025,8 hPa 0,0 l/m 0 min 0 min 97 W/m 9,7 km/h (2 Bft) 95,74 %
10.11.2021 09:54 3,0 C 3,9 C 1,1 C 95 % 1025,9 hPa 0,0 l/m 2 min 0 min 150 W/m 3,2 km/h (1 Bft) 97,87 %
10.11.2021 09:56 3,0 C 4,4 C 1,1 C 95 % 1025,9 hPa 0,0 l/m 2 min 0 min 150 W/m 9,7 km/h (2 Bft) 100,00 %
10.11.2021 09:58 3,0 C 5,0 C 1,7 C 95 % 1026,0 hPa 0,0 l/m 2 min 0 min 145 W/m 6,4 km/h (2 Bft) 97,87 %
10.11.2021 10:00 3,1 C 5,6 C 1,7 C 95 % 1026,0 hPa 0,0 l/m 2 min 0 min 155 W/m 6,4 km/h (2 Bft) 100,00 %
10.11.2021 10:02 3,1 C 6,1 C 1,7 C 95 % 1026,0 hPa 0,0 l/m 2 min 0 min 173 W/m 6,4 km/h (2 Bft) 97,87 %
10.11.2021 10:04 3,2 C 6,1 C 1,7 C 95 % 1026,0 hPa 0,0 l/m 2 min 0 min 146 W/m 6,4 km/h (2 Bft) 97,92 %
10.11.2021 10:06 3,3 C 6,1 C 1,7 C 95 % 1026,0 hPa 0,0 l/m 0 min 0 min 128 W/m 6,4 km/h (2 Bft) 97,87 %
10.11.2021 10:08 3,3 C 6,1 C 1,7 C 95 % 1025,9 hPa 0,0 l/m 0 min 0 min 128 W/m 3,2 km/h (1 Bft) 97,83 %
10.11.2021 10:10 3,4 C 6,1 C 1,7 C 95 % 1025,9 hPa 0,0 l/m 0 min 0 min 122 W/m 6,4 km/h (2 Bft) 100,00 %
10.11.2021 10:12 3,4 C 6,1 C 1,7 C 95 % 1025,9 hPa 0,0 l/m 0 min 0 min 133 W/m 6,4 km/h (2 Bft) 100,00 %
10.11.2021 10:14 3,5 C 6,1 C 1,7 C 95 % 1025,8 hPa 0,0 l/m 0 min 0 min 138 W/m 6,4 km/h (2 Bft) 100,00 %
10.11.2021 10:16 3,5 C 6,7 C 1,7 C 95 % 1025,8 hPa 0,0 l/m 2 min 0 min 146 W/m 6,4 km/h (2 Bft) 100,00 %
10.11.2021 10:18 3,6 C 6,7 C 2,2 C 95 % 1025,8 hPa 0,0 l/m 2 min 0 min 159 W/m 12,9 km/h (3 Bft) 100,00 %
10.11.2021 10:20 3,6 C 6,7 C 2,2 C 95 % 1025,7 hPa 0,0 l/m 2 min 0 min 163 W/m 6,4 km/h (2 Bft) 100,00 %
10.11.2021 10:22 3,7 C 6,1 C 2,2 C 95 % 1025,7 hPa 0,0 l/m 0 min 0 min 136 W/m 6,4 km/h (2 Bft) 100,00 %
10.11.2021 10:24 3,8 C 5,6 C 2,2 C 95 % 1025,7 hPa 0,0 l/m 0 min 0 min 118 W/m 3,2 km/h (1 Bft) 100,00 %
10.11.2021 10:26 3,8 C 5,6 C 2,2 C 95 % 1025,7 hPa 0,0 l/m 0 min 0 min 128 W/m 6,4 km/h (2 Bft) 100,00 %
10.11.2021 10:28 3,8 C 5,0 C 2,2 C 95 % 1025,7 hPa 0,0 l/m 0 min 0 min 118 W/m 3,2 km/h (1 Bft) 100,00 %
10.11.2021 10:30 3,9 C 4,4 C 2,2 C 95 % 1025,7 hPa 0,0 l/m 0 min 0 min 118 W/m 6,4 km/h (2 Bft) 100,00 %
10.11.2021 10:32 3,9 C 4,4 C 2,2 C 95 % 1025,8 hPa 0,0 l/m 0 min 0 min 120 W/m 6,4 km/h (2 Bft) 97,83 %
10.11.2021 10:34 3,9 C 4,4 C 2,2 C 95 % 1025,7 hPa 0,0 l/m 0 min 0 min 122 W/m 6,4 km/h (2 Bft) 100,00 %
10.11.2021 10:36 4,0 C 4,4 C 2,2 C 95 % 1025,7 hPa 0,0 l/m 0 min 0 min 123 W/m 6,4 km/h (2 Bft) 100,00 %
10.11.2021 10:38 4,0 C 4,4 C 2,2 C 95 % 1025,8 hPa 0,0 l/m 0 min 0 min 125 W/m 6,4 km/h (2 Bft) 100,00 %
10.11.2021 10:40 4,0 C 4,4 C 2,2 C 95 % 1025,7 hPa 0,0 l/m 0 min 0 min 127 W/m 6,4 km/h (2 Bft) 100,00 %
10.11.2021 10:42 4,0 C 5,0 C 2,8 C 95 % 1025,7 hPa 0,0 l/m 0 min 0 min 131 W/m 6,4 km/h (2 Bft) 97,87 %
10.11.2021 10:44 4,1 C 5,0 C 2,8 C 95 % 1025,7 hPa 0,0 l/m 0 min 0 min 130 W/m 3,2 km/h (1 Bft) 97,83 %
10.11.2021 10:46 4,1 C 5,0 C 2,8 C 95 % 1025,7 hPa 0,0 l/m 0 min 0 min 130 W/m 3,2 km/h (1 Bft) 93,62 %
10.11.2021 10:48 4,2 C 5,0 C 2,8 C 95 % 1025,7 hPa 0,0 l/m 0 min 0 min 129 W/m 3,2 km/h (1 Bft) 97,87 %
10.11.2021 10:50 4,2 C 5,0 C 2,8 C 95 % 1025,7 hPa 0,0 l/m 0 min 0 min 128 W/m 6,4 km/h (2 Bft) 95,74 %
10.11.2021 10:52 4,3 C 5,0 C 2,8 C 95 % 1025,7 hPa 0,0 l/m 0 min 0 min 128 W/m 3,2 km/h (1 Bft) 95,74 %
10.11.2021 10:54 4,3 C 5,0 C 2,8 C 95 % 1025,7 hPa 0,0 l/m 0 min 0 min 129 W/m 3,2 km/h (1 Bft) 97,83 %
10.11.2021 10:56 4,3 C 5,6 C 2,8 C 95 % 1025,7 hPa 0,0 l/m 0 min 0 min 136 W/m 6,4 km/h (2 Bft) 95,74 %
10.11.2021 10:58 4,4 C 5,6 C 2,8 C 95 % 1025,7 hPa 0,0 l/m 0 min 0 min 144 W/m 6,4 km/h (2 Bft) 95,74 %
10.11.2021 11:00 4,4 C 5,6 C 2,8 C 95 % 1025,7 hPa 0,0 l/m 0 min 0 min 148 W/m 3,2 km/h (1 Bft) 95,74 %
10.11.2021 11:02 4,4 C 5,6 C 3,3 C 95 % 1025,7 hPa 0,0 l/m 0 min 0 min 145 W/m 3,2 km/h (1 Bft) 97,87 %
10.11.2021 11:04 4,5 C 5,6 C 3,3 C 95 % 1025,7 hPa 0,0 l/m 0 min 0 min 147 W/m 6,4 km/h (2 Bft) 95,83 %
10.11.2021 11:06 4,6 C 6,1 C 3,3 C 95 % 1025,8 hPa 0,0 l/m 0 min 0 min 149 W/m 6,4 km/h (2 Bft) 95,74 %
10.11.2021 11:08 4,6 C 6,1 C 3,3 C 95 % 1025,8 hPa 0,0 l/m 0 min 0 min 148 W/m 3,2 km/h (1 Bft) 91,49 %
10.11.2021 11:10 4,7 C 6,1 C 3,3 C 94 % 1025,7 hPa 0,0 l/m 0 min 0 min 140 W/m 6,4 km/h (2 Bft) 95,65 %
10.11.2021 11:12 4,8 C 6,1 C 3,3 C 94 % 1025,7 hPa 0,0 l/m 0 min 0 min 135 W/m 6,4 km/h (2 Bft) 95,74 %
10.11.2021 11:14 4,8 C 6,1 C 3,3 C 94 % 1025,7 hPa 0,0 l/m 0 min 0 min 135 W/m 6,4 km/h (2 Bft) 95,74 %
10.11.2021 11:16 4,8 C 6,1 C 3,3 C 94 % 1025,6 hPa 0,0 l/m 0 min 0 min 139 W/m 6,4 km/h (2 Bft) 93,62 %
10.11.2021 11:18 4,9 C 6,1 C 3,3 C 94 % 1025,6 hPa 0,0 l/m 0 min 0 min 146 W/m 3,2 km/h (1 Bft) 95,74 %
10.11.2021 11:20 4,9 C 6,1 C 3,3 C 94 % 1025,7 hPa 0,0 l/m 0 min 0 min 150 W/m 3,2 km/h (1 Bft) 93,62 %
10.11.2021 11:22 4,9 C 6,1 C 3,3 C 94 % 1025,7 hPa 0,0 l/m 0 min 0 min 154 W/m 6,4 km/h (2 Bft) 95,65 %
10.11.2021 11:24 5,0 C 6,1 C 3,3 C 94 % 1025,7 hPa 0,0 l/m 0 min 0 min 156 W/m 6,4 km/h (2 Bft) 93,62 %
10.11.2021 11:26 5,0 C 6,1 C 3,9 C 94 % 1025,7 hPa 0,0 l/m 0 min 0 min 159 W/m 6,4 km/h (2 Bft) 93,62 %
10.11.2021 11:28 5,1 C 6,7 C 3,9 C 94 % 1025,7 hPa 0,0 l/m 0 min 0 min 160 W/m 6,4 km/h (2 Bft) 97,87 %
10.11.2021 11:30 5,2 C 6,7 C 3,9 C 94 % 1025,6 hPa 0,0 l/m 0 min 0 min 163 W/m 6,4 km/h (2 Bft) 97,87 %
10.11.2021 11:32 5,3 C 6,7 C 3,9 C 94 % 1025,6 hPa 0,0 l/m 0 min 0 min 169 W/m 6,4 km/h (2 Bft) 97,87 %
10.11.2021 11:34 5,4 C 6,7 C 3,9 C 94 % 1025,6 hPa 0,0 l/m 0 min 0 min 172 W/m 6,4 km/h (2 Bft) 97,83 %
10.11.2021 11:36 5,5 C 7,2 C 4,4 C 93 % 1025,7 hPa 0,0 l/m 0 min 0 min 174 W/m 6,4 km/h (2 Bft) 97,87 %
10.11.2021 11:38 5,6 C 7,2 C 4,4 C 93 % 1025,7 hPa 0,0 l/m 0 min 0 min 171 W/m 3,2 km/h (1 Bft) 100,00 %
10.11.2021 11:40 5,7 C 7,2 C 4,4 C 93 % 1025,6 hPa 0,0 l/m 0 min 0 min 167 W/m 6,4 km/h (2 Bft) 97,87 %
10.11.2021 11:42 5,8 C 7,8 C 4,4 C 93 % 1025,6 hPa 0,0 l/m 0 min 0 min 161 W/m 6,4 km/h (2 Bft) 100,00 %
10.11.2021 11:44 5,9 C 7,8 C 4,4 C 93 % 1025,6 hPa 0,0 l/m 0 min 0 min 160 W/m 9,7 km/h (2 Bft) 100,00 %
10.11.2021 11:46 6,0 C 7,8 C 4,4 C 93 % 1025,6 hPa 0,0 l/m 0 min 0 min 156 W/m 6,4 km/h (2 Bft) 100,00 %
10.11.2021 11:48 6,0 C 7,8 C 4,4 C 93 % 1025,6 hPa 0,0 l/m 0 min 0 min 155 W/m 6,4 km/h (2 Bft) 100,00 %
10.11.2021 11:50 6,1 C 7,8 C 4,4 C 92 % 1025,6 hPa 0,0 l/m 0 min 0 min 155 W/m 12,9 km/h (3 Bft) 100,00 %
10.11.2021 11:52 6,3 C 7,8 C 5,0 C 92 % 1025,7 hPa 0,0 l/m 0 min 0 min 152 W/m 9,7 km/h (2 Bft) 100,00 %
10.11.2021 11:54 6,4 C 7,8 C 5,0 C 92 % 1025,6 hPa 0,0 l/m 0 min 0 min 149 W/m 9,7 km/h (2 Bft) 100,00 %
10.11.2021 11:56 6,4 C 7,8 C 5,0 C 92 % 1025,7 hPa 0,0 l/m 0 min 0 min 149 W/m 6,4 km/h (2 Bft) 100,00 %
10.11.2021 11:58 6,5 C 7,8 C 5,0 C 92 % 1025,7 hPa 0,0 l/m 0 min 0 min 149 W/m 12,9 km/h (3 Bft) 100,00 %
10.11.2021 12:00 6,6 C 7,8 C 5,0 C 91 % 1025,7 hPa 0,0 l/m 0 min 0 min 150 W/m 9,7 km/h (2 Bft) 100,00 %
10.11.2021 12:02 6,8 C 8,3 C 5,0 C 91 % 1025,6 hPa 0,0 l/m 0 min 0 min 153 W/m 6,4 km/h (2 Bft) 95,74 %
10.11.2021 12:04 6,9 C 8,3 C 5,0 C 90 % 1025,7 hPa 0,0 l/m 0 min 0 min 154 W/m 9,7 km/h (2 Bft) 98,00 %
10.11.2021 12:07 7,0 C 8,3 C 5,0 C 90 % 1025,7 hPa 0,0 l/m 0 min 0 min 154 W/m 6,4 km/h (2 Bft) 100,00 %
10.11.2021 12:08 7,0 C 8,3 C 5,0 C 90 % 1025,7 hPa 0,0 l/m 0 min 0 min 150 W/m 9,7 km/h (2 Bft) 100,00 %
10.11.2021 12:10 7,1 C 8,3 C 5,0 C 89 % 1025,7 hPa 0,0 l/m 0 min 0 min 147 W/m 6,4 km/h (2 Bft) 97,87 %
10.11.2021 12:12 7,2 C 8,3 C 5,6 C 89 % 1025,7 hPa 0,0 l/m 0 min 0 min 143 W/m 6,4 km/h (2 Bft) 100,00 %
10.11.2021 12:14 7,3 C 8,3 C 5,6 C 88 % 1025,6 hPa 0,0 l/m 0 min 0 min 140 W/m 6,4 km/h (2 Bft) 97,87 %
10.11.2021 12:16 7,4 C 8,3 C 5,6 C 88 % 1025,7 hPa 0,0 l/m 0 min 0 min 135 W/m 6,4 km/h (2 Bft) 100,00 %
10.11.2021 12:18 7,4 C 8,3 C 5,6 C 87 % 1025,7 hPa 0,0 l/m 0 min 0 min 131 W/m 6,4 km/h (2 Bft) 97,87 %
10.11.2021 12:20 7,5 C 8,3 C 5,6 C 87 % 1025,7 hPa 0,0 l/m 0 min 0 min 128 W/m 12,9 km/h (3 Bft) 95,65 %
10.11.2021 12:22 7,5 C 8,3 C 5,6 C 87 % 1025,7 hPa 0,0 l/m 0 min 0 min 123 W/m 3,2 km/h (1 Bft) 97,87 %
10.11.2021 12:24 7,6 C 8,3 C 5,6 C 87 % 1025,7 hPa 0,0 l/m 0 min 0 min 119 W/m 6,4 km/h (2 Bft) 97,87 %
10.11.2021 12:26 7,6 C 8,3 C 5,6 C 86 % 1025,7 hPa 0,0 l/m 0 min 0 min 113 W/m 0,0 km/h (0 Bft) 97,87 %
10.11.2021 12:28 7,6 C 8,3 C 5,6 C 86 % 1025,7 hPa 0,0 l/m 0 min 0 min 105 W/m 6,4 km/h (2 Bft) 97,87 %
10.11.2021 12:30 7,7 C 8,3 C 5,6 C 86 % 1025,7 hPa 0,0 l/m 0 min 0 min 104 W/m 9,7 km/h (2 Bft) 95,74 %
10.11.2021 12:32 7,7 C 8,3 C 5,6 C 86 % 1025,8 hPa 0,0 l/m 0 min 0 min 104 W/m 6,4 km/h (2 Bft) 97,83 %
10.11.2021 12:34 7,8 C 8,3 C 5,6 C 85 % 1025,8 hPa 0,0 l/m 0 min 0 min 95 W/m 12,9 km/h (3 Bft) 97,87 %
10.11.2021 12:36 7,8 C 8,3 C 5,6 C 85 % 1025,7 hPa 0,0 l/m 0 min 0 min 89 W/m 3,2 km/h (1 Bft) 97,87 %
10.11.2021 12:38 7,8 C 8,3 C 5,0 C 85 % 1025,6 hPa 0,0 l/m 0 min 0 min 87 W/m 6,4 km/h (2 Bft) 97,87 %
10.11.2021 12:40 7,9 C 8,3 C 5,0 C 84 % 1025,6 hPa 0,0 l/m 0 min 0 min 89 W/m 6,4 km/h (2 Bft) 97,87 %
10.11.2021 12:42 7,9 C 8,9 C 5,0 C 84 % 1025,6 hPa 0,0 l/m 0 min 0 min 96 W/m 3,2 km/h (1 Bft) 97,87 %
10.11.2021 12:44 8,0 C 8,9 C 5,0 C 83 % 1025,6 hPa 0,0 l/m 0 min 0 min 139 W/m 6,4 km/h (2 Bft) 97,83 %
10.11.2021 12:46 8,0 C 9,4 C 5,0 C 83 % 1025,6 hPa 0,0 l/m 0 min 0 min 156 W/m 12,9 km/h (3 Bft) 97,87 %
10.11.2021 12:48 8,0 C 9,4 C 5,0 C 83 % 1025,5 hPa 0,0 l/m 0 min 0 min 121 W/m 9,7 km/h (2 Bft) 97,87 %
10.11.2021 12:50 8,1 C 10,0 C 5,6 C 83 % 1025,5 hPa 0,0 l/m 0 min 0 min 122 W/m 6,4 km/h (2 Bft) 97,87 %
10.11.2021 12:52 8,1 C 10,0 C 5,6 C 83 % 1025,4 hPa 0,0 l/m 2 min 0 min 189 W/m 6,4 km/h (2 Bft) 97,14 %
10.11.2021 12:54 8,3 C 10,6 C 5,6 C 83 % 1025,4 hPa 0,0 l/m 2 min 0 min 331 W/m 6,4 km/h (2 Bft) 98,31 %
10.11.2021 12:56 8,3 C 10,6 C 5,6 C 83 % 1025,3 hPa 0,0 l/m 2 min 0 min 351 W/m 12,9 km/h (3 Bft) 100,00 %
10.11.2021 12:58 8,4 C 10,0 C 5,6 C 82 % 1025,4 hPa 0,0 l/m 2 min 0 min 261 W/m 6,4 km/h (2 Bft) 95,74 %
10.11.2021 13:00 8,4 C 10,6 C 5,6 C 82 % 1025,3 hPa 0,0 l/m 2 min 0 min 266 W/m 6,4 km/h (2 Bft) 100,00 %
10.11.2021 13:02 8,5 C 10,6 C 5,6 C 82 % 1025,2 hPa 0,0 l/m 2 min 0 min 330 W/m 9,7 km/h (2 Bft) 97,83 %
10.11.2021 13:04 8,6 C 10,6 C 5,6 C 82 % 1025,1 hPa 0,0 l/m 2 min 0 min 352 W/m 16,1 km/h (3 Bft) 100,00 %
10.11.2021 13:06 8,6 C 11,1 C 5,6 C 82 % 1025,1 hPa 0,0 l/m 2 min 0 min 342 W/m 12,9 km/h (3 Bft) 100,00 %
10.11.2021 13:08 8,7 C 11,7 C 5,6 C 82 % 1025,0 hPa 0,0 l/m 2 min 0 min 316 W/m 6,4 km/h (2 Bft) 97,87 %
10.11.2021 13:10 8,8 C 11,7 C 5,6 C 82 % 1025,1 hPa 0,0 l/m 2 min 0 min 262 W/m 6,4 km/h (2 Bft) 97,87 %
10.11.2021 13:12 8,8 C 11,1 C 5,6 C 82 % 1025,0 hPa 0,0 l/m 2 min 0 min 194 W/m 12,9 km/h (3 Bft) 100,00 %
10.11.2021 13:14 8,9 C 11,7 C 5,6 C 81 % 1025,0 hPa 0,0 l/m 2 min 0 min 291 W/m 12,9 km/h (3 Bft) 97,87 %
10.11.2021 13:16 8,9 C 12,2 C 5,6 C 81 % 1024,9 hPa 0,0 l/m 2 min 0 min 232 W/m 3,2 km/h (1 Bft) 95,74 %
10.11.2021 13:18 8,9 C 12,2 C 5,6 C 81 % 1024,9 hPa 0,0 l/m 2 min 0 min 249 W/m 6,4 km/h (2 Bft) 95,65 %
10.11.2021 13:20 9,0 C 11,7 C 5,6 C 81 % 1024,8 hPa 0,0 l/m 2 min 0 min 284 W/m 3,2 km/h (1 Bft) 95,74 %
10.11.2021 13:22 9,0 C 11,1 C 5,6 C 81 % 1024,8 hPa 0,0 l/m 2 min 0 min 244 W/m 9,7 km/h (2 Bft) 95,74 %
10.11.2021 13:24 9,1 C 11,1 C 5,6 C 81 % 1024,8 hPa 0,0 l/m 2 min 0 min 185 W/m 3,2 km/h (1 Bft) 93,62 %
10.11.2021 13:26 9,1 C 10,6 C 5,6 C 81 % 1024,7 hPa 0,0 l/m 0 min 0 min 163 W/m 6,4 km/h (2 Bft) 93,62 %
10.11.2021 13:28 9,1 C 10,0 C 5,6 C 80 % 1024,7 hPa 0,0 l/m 0 min 0 min 136 W/m 6,4 km/h (2 Bft) 93,62 %
10.11.2021 13:30 9,1 C 10,0 C 5,6 C 80 % 1024,7 hPa 0,0 l/m 0 min 0 min 142 W/m 6,4 km/h (2 Bft) 95,65 %
10.11.2021 13:32 9,1 C 9,4 C 5,6 C 80 % 1024,8 hPa 0,0 l/m 0 min 0 min 154 W/m 3,2 km/h (1 Bft) 95,74 %
10.11.2021 13:34 9,1 C 9,4 C 5,6 C 80 % 1024,8 hPa 0,0 l/m 0 min 0 min 153 W/m 6,4 km/h (2 Bft) 95,74 %
10.11.2021 13:36 9,1 C 9,4 C 5,6 C 80 % 1024,8 hPa 0,0 l/m 0 min 0 min 153 W/m 6,4 km/h (2 Bft) 95,74 %
10.11.2021 13:38 9,1 C 9,4 C 5,6 C 80 % 1024,9 hPa 0,0 l/m 0 min 0 min 155 W/m 6,4 km/h (2 Bft) 95,74 %
10.11.2021 13:40 9,1 C 9,4 C 5,6 C 80 % 1024,9 hPa 0,0 l/m 0 min 0 min 158 W/m 6,4 km/h (2 Bft) 95,74 %
10.11.2021 13:42 9,1 C 9,4 C 5,6 C 80 % 1024,8 hPa 0,0 l/m 0 min 0 min 154 W/m 6,4 km/h (2 Bft) 93,48 %
10.11.2021 13:44 9,0 C 9,4 C 5,6 C 80 % 1024,9 hPa 0,0 l/m 0 min 0 min 142 W/m 6,4 km/h (2 Bft) 95,74 %
10.11.2021 13:46 9,0 C 8,9 C 5,6 C 80 % 1024,8 hPa 0,0 l/m 0 min 0 min 137 W/m 6,4 km/h (2 Bft) 93,62 %
10.11.2021 13:48 9,0 C 8,9 C 5,6 C 80 % 1024,7 hPa 0,0 l/m 0 min 0 min 127 W/m 3,2 km/h (1 Bft) 95,74 %
10.11.2021 13:50 9,0 C 8,9 C 5,6 C 80 % 1024,7 hPa 0,0 l/m 0 min 0 min 116 W/m 6,4 km/h (2 Bft) 95,74 %
10.11.2021 13:52 9,0 C 8,9 C 5,6 C 80 % 1024,7 hPa 0,0 l/m 0 min 0 min 110 W/m 6,4 km/h (2 Bft) 97,87 %
10.11.2021 13:54 9,0 C 8,9 C 5,6 C 80 % 1024,7 hPa 0,0 l/m 0 min 0 min 104 W/m 6,4 km/h (2 Bft) 97,83 %
10.11.2021 13:56 8,9 C 8,9 C 5,6 C 80 % 1024,7 hPa 0,0 l/m 0 min 0 min 108 W/m 6,4 km/h (2 Bft) 97,87 %
10.11.2021 13:58 8,9 C 8,9 C 5,6 C 79 % 1024,6 hPa 0,0 l/m 0 min 0 min 119 W/m 6,4 km/h (2 Bft) 97,87 %
10.11.2021 14:00 8,9 C 8,9 C 5,6 C 79 % 1024,6 hPa 0,0 l/m 0 min 0 min 126 W/m 6,4 km/h (2 Bft) 93,62 %
10.11.2021 14:02 8,9 C 8,9 C 5,6 C 79 % 1024,5 hPa 0,0 l/m 0 min 0 min 125 W/m 6,4 km/h (2 Bft) 97,22 %
10.11.2021 14:04 8,9 C 8,9 C 5,6 C 79 % 1024,5 hPa 0,0 l/m 2 min 0 min 152 W/m 3,2 km/h (1 Bft) 95,74 %
10.11.2021 14:06 8,9 C 8,9 C 5,6 C 79 % 1024,4 hPa 0,0 l/m 2 min 0 min 190 W/m 3,2 km/h (1 Bft) 97,87 %
10.11.2021 14:08 8,9 C 8,9 C 5,6 C 79 % 1024,4 hPa 0,0 l/m 2 min 0 min 163 W/m 6,4 km/h (2 Bft) 96,55 %
10.11.2021 14:10 8,9 C 9,4 C 5,6 C 79 % 1024,4 hPa 0,0 l/m 2 min 0 min 149 W/m 3,2 km/h (1 Bft) 100,00 %
10.11.2021 14:12 8,9 C 9,4 C 5,6 C 79 % 1024,4 hPa 0,0 l/m 2 min 0 min 167 W/m 12,9 km/h (3 Bft) 100,00 %
10.11.2021 14:14 8,9 C 9,4 C 5,6 C 79 % 1024,3 hPa 0,0 l/m 2 min 0 min 169 W/m 3,2 km/h (1 Bft) 100,00 %
10.11.2021 14:16 8,9 C 9,4 C 5,6 C 79 % 1024,4 hPa 0,0 l/m 2 min 0 min 188 W/m 6,4 km/h (2 Bft) 100,00 %
10.11.2021 14:18 8,9 C 10,0 C 5,6 C 79 % 1024,3 hPa 0,0 l/m 2 min 0 min 198 W/m 6,4 km/h (2 Bft) 100,00 %
10.11.2021 14:20 8,9 C 10,0 C 5,6 C 79 % 1024,3 hPa 0,0 l/m 2 min 0 min 213 W/m 6,4 km/h (2 Bft) 100,00 %
10.11.2021 14:22 9,0 C 10,6 C 5,6 C 79 % 1024,3 hPa 0,0 l/m 2 min 0 min 248 W/m 6,4 km/h (2 Bft) 97,87 %
10.11.2021 14:24 9,0 C 11,1 C 5,6 C 79 % 1024,2 hPa 0,0 l/m 2 min 0 min 294 W/m 12,9 km/h (3 Bft) 100,00 %
10.11.2021 14:26 9,0 C 12,2 C 6,1 C 79 % 1024,2 hPa 0,0 l/m 2 min 0 min 311 W/m 3,2 km/h (1 Bft) 100,00 %
10.11.2021 14:28 9,1 C 11,7 C 6,1 C 79 % 1024,2 hPa 0,0 l/m 2 min 0 min 262 W/m 6,4 km/h (2 Bft) 100,00 %
10.11.2021 14:30 9,2 C 11,1 C 6,1 C 79 % 1024,2 hPa 0,0 l/m 2 min 0 min 213 W/m 9,7 km/h (2 Bft) 100,00 %
10.11.2021 14:32 9,3 C 11,1 C 6,1 C 79 % 1024,2 hPa 0,0 l/m 2 min 0 min 205 W/m 12,9 km/h (3 Bft) 97,83 %
10.11.2021 14:34 9,3 C 11,1 C 6,1 C 79 % 1024,2 hPa 0,0 l/m 2 min 0 min 210 W/m 12,9 km/h (3 Bft) 97,87 %
10.11.2021 14:36 9,3 C 11,1 C 6,1 C 78 % 1024,2 hPa 0,0 l/m 2 min 0 min 223 W/m 9,7 km/h (2 Bft) 100,00 %
10.11.2021 14:38 9,4 C 11,1 C 6,1 C 78 % 1024,2 hPa 0,0 l/m 2 min 0 min 224 W/m 9,7 km/h (2 Bft) 100,00 %
10.11.2021 14:40 9,4 C 11,1 C 6,1 C 78 % 1024,3 hPa 0,0 l/m 2 min 0 min 203 W/m 6,4 km/h (2 Bft) 100,00 %
10.11.2021 14:42 9,4 C 11,1 C 6,1 C 78 % 1024,3 hPa 0,0 l/m 2 min 0 min 136 W/m 6,4 km/h (2 Bft) 97,87 %
10.11.2021 14:44 9,4 C 10,6 C 6,1 C 77 % 1024,3 hPa 0,0 l/m 0 min 0 min 120 W/m 6,4 km/h (2 Bft) 100,00 %
10.11.2021 14:46 9,5 C 10,6 C 5,6 C 77 % 1024,4 hPa 0,0 l/m 2 min 0 min 141 W/m 9,7 km/h (2 Bft) 100,00 %
10.11.2021 14:48 9,4 C 10,0 C 5,6 C 77 % 1024,4 hPa 0,0 l/m 0 min 0 min 117 W/m 6,4 km/h (2 Bft) 100,00 %
10.11.2021 14:50 9,4 C 10,0 C 5,6 C 77 % 1024,4 hPa 0,0 l/m 0 min 0 min 111 W/m 3,2 km/h (1 Bft) 100,00 %
10.11.2021 14:52 9,4 C 9,4 C 5,6 C 77 % 1024,4 hPa 0,0 l/m 0 min 0 min 104 W/m 6,4 km/h (2 Bft) 95,74 %
10.11.2021 14:54 9,4 C 9,4 C 5,6 C 77 % 1024,4 hPa 0,0 l/m 0 min 0 min 99 W/m 6,4 km/h (2 Bft) 95,74 %
10.11.2021 14:56 9,4 C 9,4 C 5,6 C 77 % 1024,4 hPa 0,0 l/m 0 min 0 min 105 W/m 12,9 km/h (3 Bft) 97,83 %
10.11.2021 14:58 9,4 C 9,4 C 5,6 C 77 % 1024,5 hPa 0,0 l/m 2 min 0 min 129 W/m 3,2 km/h (1 Bft) 97,87 %
10.11.2021 15:00 9,4 C 9,4 C 5,6 C 77 % 1024,5 hPa 0,0 l/m 2 min 0 min 139 W/m 6,4 km/h (2 Bft) 95,74 %
10.11.2021 15:02 9,4 C 9,4 C 5,6 C 77 % 1024,6 hPa 0,0 l/m 2 min 0 min 183 W/m 6,4 km/h (2 Bft) 97,87 %
10.11.2021 15:04 9,3 C 9,4 C 5,6 C 77 % 1024,5 hPa 0,0 l/m 2 min 0 min 176 W/m 6,4 km/h (2 Bft) 97,87 %
10.11.2021 15:06 9,3 C 9,4 C 5,6 C 77 % 1024,4 hPa 0,0 l/m 2 min 0 min 194 W/m 6,4 km/h (2 Bft) 98,00 %
10.11.2021 15:08 9,3 C 9,4 C 5,6 C 77 % 1024,4 hPa 0,0 l/m 2 min 0 min 205 W/m 3,2 km/h (1 Bft) 97,83 %
10.11.2021 15:10 9,3 C 9,4 C 5,6 C 77 % 1024,4 hPa 0,0 l/m 2 min 0 min 233 W/m 3,2 km/h (1 Bft) 97,96 %
10.11.2021 15:12 9,4 C 9,4 C 5,6 C 77 % 1024,3 hPa 0,0 l/m 2 min 0 min 243 W/m 3,2 km/h (1 Bft) 97,96 %
10.11.2021 15:16 9,4 C 9,4 C 6,1 C 77 % 1024,4 hPa 0,0 l/m 4 min 0 min 220 W/m 6,4 km/h (2 Bft) 96,70 %
10.11.2021 15:18 9,4 C 9,4 C 6,1 C 77 % 1024,4 hPa 0,0 l/m 2 min 0 min 230 W/m 3,2 km/h (1 Bft) 97,73 %
10.11.2021 15:20 9,4 C 10,0 C 6,1 C 77 % 1024,4 hPa 0,0 l/m 2 min 0 min 227 W/m 3,2 km/h (1 Bft) 97,83 %
10.11.2021 15:22 9,4 C 9,4 C 6,1 C 77 % 1024,5 hPa 0,0 l/m 2 min 0 min 168 W/m 3,2 km/h (1 Bft) 95,74 %
10.11.2021 15:24 9,5 C 9,4 C 6,1 C 77 % 1024,5 hPa 0,0 l/m 2 min 0 min 128 W/m 6,4 km/h (2 Bft) 97,87 %
10.11.2021 15:26 9,5 C 9,4 C 6,1 C 77 % 1024,6 hPa 0,0 l/m 2 min 0 min 116 W/m 6,4 km/h (2 Bft) 95,74 %
10.11.2021 15:28 9,5 C 9,4 C 6,1 C 77 % 1024,6 hPa 0,0 l/m 2 min 0 min 107 W/m 6,4 km/h (2 Bft) 95,74 %
10.11.2021 15:30 9,5 C 9,4 C 6,1 C 77 % 1024,6 hPa 0,0 l/m 2 min 0 min 100 W/m 3,2 km/h (1 Bft) 93,48 %
10.11.2021 15:32 9,5 C 9,4 C 6,1 C 77 % 1024,5 hPa 0,0 l/m 2 min 0 min 93 W/m 6,4 km/h (2 Bft) 93,62 %
10.11.2021 15:34 9,5 C 9,4 C 6,1 C 77 % 1024,6 hPa 0,0 l/m 2 min 0 min 85 W/m 6,4 km/h (2 Bft) 95,74 %
10.11.2021 15:36 9,5 C 9,4 C 5,6 C 77 % 1024,5 hPa 0,0 l/m 2 min 0 min 79 W/m 3,2 km/h (1 Bft) 95,74 %
10.11.2021 15:38 9,4 C 8,9 C 5,6 C 77 % 1024,6 hPa 0,0 l/m 0 min 0 min 72 W/m 12,9 km/h (3 Bft) 97,87 %
10.11.2021 15:40 9,5 C 8,9 C 5,6 C 77 % 1024,6 hPa 0,0 l/m 0 min 0 min 69 W/m 6,4 km/h (2 Bft) 98,00 %
10.11.2021 15:42 9,4 C 8,9 C 5,6 C 77 % 1024,6 hPa 0,0 l/m 0 min 0 min 65 W/m 3,2 km/h (1 Bft) 97,83 %
10.11.2021 15:44 9,4 C 8,9 C 5,6 C 77 % 1024,6 hPa 0,0 l/m 0 min 0 min 60 W/m 6,4 km/h (2 Bft) 95,74 %
10.11.2021 15:46 9,4 C 8,9 C 5,6 C 77 % 1024,6 hPa 0,0 l/m 0 min 0 min 54 W/m 6,4 km/h (2 Bft) 89,58 %
10.11.2021 15:48 9,4 C 8,9 C 5,6 C 77 % 1024,6 hPa 0,0 l/m 0 min 0 min 51 W/m 3,2 km/h (1 Bft) 97,87 %
10.11.2021 15:50 9,4 C 8,9 C 5,6 C 77 % 1024,6 hPa 0,0 l/m 0 min 0 min 49 W/m 6,4 km/h (2 Bft) 97,87 %
10.11.2021 15:52 9,4 C 8,9 C 5,6 C 77 % 1024,7 hPa 0,0 l/m 0 min 0 min 46 W/m 3,2 km/h (1 Bft) 97,87 %
10.11.2021 15:54 9,3 C 8,3 C 5,6 C 77 % 1024,7 hPa 0,0 l/m 0 min 0 min 44 W/m 3,2 km/h (1 Bft) 97,14 %
10.11.2021 15:56 9,3 C 8,3 C 5,6 C 77 % 1024,8 hPa 0,0 l/m 0 min 0 min 42 W/m 3,2 km/h (1 Bft) 97,87 %
10.11.2021 15:58 9,3 C 8,3 C 5,6 C 77 % 1024,8 hPa 0,0 l/m 0 min 0 min 40 W/m 3,2 km/h (1 Bft) 97,87 %
10.11.2021 16:00 9,3 C 8,3 C 5,6 C 78 % 1024,8 hPa 0,0 l/m 0 min 0 min 38 W/m 6,4 km/h (2 Bft) 95,74 %
10.11.2021 16:02 9,3 C 8,3 C 5,0 C 78 % 1024,8 hPa 0,0 l/m 0 min 0 min 36 W/m 9,7 km/h (2 Bft) 97,87 %
10.11.2021 16:04 9,3 C 8,3 C 5,0 C 78 % 1024,8 hPa 0,0 l/m 0 min 0 min 34 W/m 6,4 km/h (2 Bft) 97,87 %
10.11.2021 16:06 9,2 C 8,3 C 5,0 C 78 % 1024,7 hPa 0,0 l/m 0 min 0 min 31 W/m 3,2 km/h (1 Bft) 98,31 %
10.11.2021 16:08 9,2 C 8,3 C 5,0 C 77 % 1024,7 hPa 0,0 l/m 0 min 0 min 26 W/m 3,2 km/h (1 Bft) 97,87 %
10.11.2021 16:10 9,1 C 8,3 C 5,0 C 78 % 1024,8 hPa 0,0 l/m 0 min 0 min 27 W/m 3,2 km/h (1 Bft) 97,14 %
10.11.2021 16:12 9,1 C 8,3 C 5,0 C 78 % 1024,8 hPa 0,0 l/m 0 min 0 min 27 W/m 3,2 km/h (1 Bft) 98,15 %
10.11.2021 16:14 9,1 C 7,8 C 4,4 C 78 % 1024,8 hPa 0,0 l/m 0 min 0 min 26 W/m 3,2 km/h (1 Bft) 95,74 %
10.11.2021 16:16 9,1 C 7,8 C 4,4 C 78 % 1024,8 hPa 0,0 l/m 0 min 0 min 25 W/m 3,2 km/h (1 Bft) 97,87 %
10.11.2021 16:18 9,1 C 7,8 C 4,4 C 78 % 1024,9 hPa 0,0 l/m 0 min 0 min 24 W/m 0,0 km/h (0 Bft) 97,83 %
10.11.2021 16:20 9,1 C 7,8 C 4,4 C 78 % 1024,9 hPa 0,0 l/m 0 min 0 min 23 W/m 0,0 km/h (0 Bft) 97,87 %
10.11.2021 16:22 9,0 C 7,8 C 4,4 C 78 % 1024,9 hPa 0,0 l/m 0 min 0 min 22 W/m 0,0 km/h (0 Bft) 97,87 %
10.11.2021 16:24 9,0 C 7,8 C 4,4 C 78 % 1024,8 hPa 0,0 l/m 0 min 0 min 21 W/m 0,0 km/h (0 Bft) 97,87 %
10.11.2021 16:26 9,0 C 7,2 C 4,4 C 78 % 1024,8 hPa 0,0 l/m 0 min 0 min 19 W/m 0,0 km/h (0 Bft) 97,87 %
10.11.2021 16:28 8,9 C 7,2 C 4,4 C 78 % 1024,7 hPa 0,0 l/m 0 min 0 min 19 W/m 0,0 km/h (0 Bft) 97,87 %
10.11.2021 16:30 8,9 C 7,2 C 3,9 C 78 % 1024,7 hPa 0,0 l/m 0 min 0 min 18 W/m 3,2 km/h (1 Bft) 97,83 %
10.11.2021 16:32 8,9 C 7,2 C 3,9 C 78 % 1024,7 hPa 0,0 l/m 0 min 0 min 17 W/m 3,2 km/h (1 Bft) 97,87 %
10.11.2021 16:34 8,8 C 7,2 C 3,9 C 78 % 1024,7 hPa 0,0 l/m 0 min 0 min 15 W/m 3,2 km/h (1 Bft) 97,87 %
10.11.2021 16:36 8,8 C 7,2 C 3,9 C 78 % 1024,6 hPa 0,0 l/m 0 min 0 min 14 W/m 0,0 km/h (0 Bft) 97,87 %
10.11.2021 16:38 8,8 C 7,2 C 3,9 C 78 % 1024,7 hPa 0,0 l/m 0 min 0 min 12 W/m 0,0 km/h (0 Bft) 97,87 %
10.11.2021 16:40 8,7 C 6,7 C 3,3 C 78 % 1024,6 hPa 0,0 l/m 0 min 0 min 12 W/m 0,0 km/h (0 Bft) 97,87 %
10.11.2021 16:42 8,6 C 6,7 C 3,3 C 78 % 1024,6 hPa 0,0 l/m 0 min 0 min 11 W/m 0,0 km/h (0 Bft) 95,65 %
10.11.2021 16:44 8,6 C 6,1 C 3,3 C 78 % 1024,7 hPa 0,0 l/m 0 min 0 min 9 W/m 0,0 km/h (0 Bft) 100,00 %
10.11.2021 16:46 8,5 C 6,1 C 2,8 C 78 % 1024,7 hPa 0,0 l/m 0 min 0 min 9 W/m 0,0 km/h (0 Bft) 100,00 %
10.11.2021 16:48 8,5 C 6,1 C 2,8 C 79 % 1024,6 hPa 0,0 l/m 0 min 0 min 7 W/m 0,0 km/h (0 Bft) 100,00 %
10.11.2021 16:50 8,5 C 5,6 C 2,8 C 78 % 1024,6 hPa 0,0 l/m 0 min 0 min 7 W/m 0,0 km/h (0 Bft) 97,87 %
10.11.2021 16:52 8,4 C 5,6 C 2,8 C 78 % 1024,7 hPa 0,0 l/m 0 min 0 min 5 W/m 0,0 km/h (0 Bft) 100,00 %
10.11.2021 16:54 8,3 C 5,6 C 2,8 C 78 % 1024,8 hPa 0,0 l/m 0 min 0 min 5 W/m 0,0 km/h (0 Bft) 100,00 %
10.11.2021 16:56 8,3 C 5,6 C 2,8 C 79 % 1024,8 hPa 0,0 l/m 0 min 0 min 4 W/m 0,0 km/h (0 Bft) 97,87 %
10.11.2021 16:58 8,1 C 5,6 C 2,2 C 79 % 1024,8 hPa 0,0 l/m 0 min 0 min 0 W/m 0,0 km/h (0 Bft) 95,74 %
10.11.2021 17:00 8,1 C 5,0 C 2,2 C 79 % 1024,7 hPa 0,0 l/m 0 min 0 min 0 W/m 0,0 km/h (0 Bft) 97,87 %
10.11.2021 17:02 8,0 C 5,0 C 2,2 C 79 % 1024,7 hPa 0,0 l/m 0 min 0 min 0 W/m 0,0 km/h (0 Bft) 95,74 %
10.11.2021 17:04 7,9 C 5,0 C 2,2 C 80 % 1024,6 hPa 0,0 l/m 0 min 0 min 0 W/m 0,0 km/h (0 Bft) 95,74 %
10.11.2021 17:06 7,9 C 5,0 C 2,2 C 80 % 1024,6 hPa 0,0 l/m 0 min 0 min 0 W/m 0,0 km/h (0 Bft) 97,83 %
10.11.2021 17:08 7,8 C 5,0 C 2,2 C 80 % 1024,6 hPa 0,0 l/m 0 min 0 min 0 W/m 0,0 km/h (0 Bft) 97,87 %
10.11.2021 17:10 7,7 C 5,0 C 2,2 C 80 % 1024,7 hPa 0,0 l/m 0 min 0 min 0 W/m 0,0 km/h (0 Bft) 97,87 %
10.11.2021 17:12 7,6 C 5,0 C 2,2 C 80 % 1024,6 hPa 0,0 l/m 0 min 0 min 0 W/m 0,0 km/h (0 Bft) 97,83 %
10.11.2021 17:14 7,6 C 5,0 C 2,2 C 80 % 1024,6 hPa 0,0 l/m 0 min 0 min 0 W/m 0,0 km/h (0 Bft) 97,87 %
10.11.2021 17:16 7,5 C 4,4 C 1,7 C 81 % 1024,6 hPa 0,0 l/m 0 min 0 min 0 W/m 0,0 km/h (0 Bft) 97,83 %
10.11.2021 17:18 7,4 C 4,4 C 1,7 C 81 % 1024,6 hPa 0,0 l/m 0 min 0 min 0 W/m 0,0 km/h (0 Bft) 97,87 %
10.11.2021 17:20 7,4 C 4,4 C 1,7 C 81 % 1024,6 hPa 0,0 l/m 0 min 0 min 0 W/m 0,0 km/h (0 Bft) 97,87 %
10.11.2021 17:22 7,3 C 4,4 C 1,7 C 81 % 1024,6 hPa 0,0 l/m 0 min 0 min 0 W/m 0,0 km/h (0 Bft) 100,00 %
10.11.2021 17:24 7,2 C 4,4 C 1,7 C 81 % 1024,6 hPa 0,0 l/m 0 min 0 min 0 W/m 0,0 km/h (0 Bft) 100,00 %
10.11.2021 17:26 7,1 C 4,4 C 1,7 C 81 % 1024,7 hPa 0,0 l/m 0 min 0 min 0 W/m 0,0 km/h (0 Bft) 100,00 %
10.11.2021 17:28 7,0 C 3,9 C 1,7 C 81 % 1024,8 hPa 0,0 l/m 0 min 0 min 0 W/m 0,0 km/h (0 Bft) 100,00 %
10.11.2021 17:30 6,9 C 3,9 C 1,7 C 81 % 1024,8 hPa 0,0 l/m 0 min 0 min 0 W/m 0,0 km/h (0 Bft) 97,87 %
10.11.2021 17:32 6,8 C 4,4 C 1,7 C 82 % 1024,8 hPa 0,0 l/m 0 min 0 min 0 W/m 0,0 km/h (0 Bft) 100,00 %
10.11.2021 17:34 6,8 C 4,4 C 1,7 C 82 % 1024,8 hPa 0,0 l/m 0 min 0 min 0 W/m 0,0 km/h (0 Bft) 100,00 %
10.11.2021 17:36 6,7 C 4,4 C 1,7 C 83 % 1024,8 hPa 0,0 l/m 0 min 0 min 0 W/m 0,0 km/h (0 Bft) 100,00 %
10.11.2021 17:38 6,6 C 3,9 C 1,7 C 83 % 1025,0 hPa 0,0 l/m 0 min 0 min 0 W/m 0,0 km/h (0 Bft) 100,00 %
10.11.2021 17:40 6,5 C 3,9 C 1,7 C 83 % 1025,0 hPa 0,0 l/m 0 min 0 min 0 W/m 0,0 km/h (0 Bft) 100,00 %
10.11.2021 17:42 6,5 C 3,9 C 1,7 C 84 % 1025,0 hPa 0,0 l/m 0 min 0 min 0 W/m 0,0 km/h (0 Bft) 97,87 %
10.11.2021 17:44 6,4 C 3,9 C 1,7 C 84 % 1025,0 hPa 0,0 l/m 0 min 0 min 0 W/m 0,0 km/h (0 Bft) 100,00 %
10.11.2021 17:46 6,4 C 3,9 C 1,1 C 84 % 1025,0 hPa 0,0 l/m 0 min 0 min 0 W/m 0,0 km/h (0 Bft) 97,87 %
10.11.2021 17:48 6,3 C 3,9 C 1,1 C 84 % 1025,0 hPa 0,0 l/m 0 min 0 min 0 W/m 0,0 km/h (0 Bft) 100,00 %
10.11.2021 17:50 6,3 C 3,9 C 1,1 C 84 % 1024,9 hPa 0,0 l/m 0 min 0 min 0 W/m 0,0 km/h (0 Bft) 95,74 %
10.11.2021 17:52 6,1 C 3,3 C 1,1 C 84 % 1024,9 hPa 0,0 l/m 0 min 0 min 0 W/m 0,0 km/h (0 Bft) 97,83 %
10.11.2021 17:54 6,1 C 3,9 C 1,1 C 84 % 1024,9 hPa 0,0 l/m 0 min 0 min 0 W/m 0,0 km/h (0 Bft) 100,00 %
10.11.2021 17:56 6,0 C 3,9 C 1,1 C 84 % 1024,9 hPa 0,0 l/m 0 min 0 min 0 W/m 0,0 km/h (0 Bft) 100,00 %
10.11.2021 17:58 6,0 C 3,3 C 1,1 C 84 % 1024,9 hPa 0,0 l/m 0 min 0 min 0 W/m 0,0 km/h (0 Bft) 100,00 %
10.11.2021 18:00 5,9 C 3,3 C 1,1 C 84 % 1025,0 hPa 0,0 l/m 0 min 0 min 0 W/m 0,0 km/h (0 Bft) 97,87 %
10.11.2021 18:02 5,9 C 3,3 C 1,1 C 85 % 1025,1 hPa 0,0 l/m 0 min 0 min 0 W/m 0,0 km/h (0 Bft) 97,92 %
10.11.2021 18:04 5,8 C 3,3 C 1,1 C 85 % 1025,1 hPa 0,0 l/m 0 min 0 min 0 W/m 0,0 km/h (0 Bft) 97,83 %
10.11.2021 18:06 5,8 C 3,3 C 1,1 C 85 % 1025,1 hPa 0,0 l/m 0 min 0 min 0 W/m 0,0 km/h (0 Bft) 93,62 %
10.11.2021 18:08 5,6 C 3,3 C 1,1 C 85 % 1025,1 hPa 0,0 l/m 0 min 0 min 0 W/m 0,0 km/h (0 Bft) 97,87 %
10.11.2021 18:10 5,6 C 3,3 C 1,1 C 85 % 1025,1 hPa 0,0 l/m 0 min 0 min 0 W/m 0,0 km/h (0 Bft) 97,87 %
10.11.2021 18:12 5,5 C 3,3 C 1,1 C 85 % 1025,1 hPa 0,0 l/m 0 min 0 min 0 W/m 0,0 km/h (0 Bft) 97,87 %
10.11.2021 18:14 5,5 C 3,3 C 1,1 C 85 % 1025,1 hPa 0,0 l/m 0 min 0 min 0 W/m 0,0 km/h (0 Bft) 97,87 %
10.11.2021 18:16 5,5 C 3,3 C 1,1 C 85 % 1025,1 hPa 0,0 l/m 0 min 0 min 0 W/m 0,0 km/h (0 Bft) 97,83 %
10.11.2021 18:18 5,4 C 3,3 C 1,1 C 85 % 1025,0 hPa 0,0 l/m 0 min 0 min 0 W/m 3,2 km/h (1 Bft) 97,87 %
10.11.2021 18:20 5,4 C 3,9 C 1,1 C 86 % 1025,0 hPa 0,0 l/m 0 min 0 min 0 W/m 3,2 km/h (1 Bft) 93,62 %
10.11.2021 18:22 5,3 C 3,9 C 1,1 C 86 % 1025,0 hPa 0,0 l/m 0 min 0 min 0 W/m 0,0 km/h (0 Bft) 91,49 %
10.11.2021 18:24 5,3 C 3,9 C 1,1 C 86 % 1025,0 hPa 0,0 l/m 0 min 0 min 0 W/m 0,0 km/h (0 Bft) 95,74 %
10.11.2021 18:26 5,3 C 3,3 C 1,1 C 86 % 1025,0 hPa 0,0 l/m 0 min 0 min 0 W/m 0,0 km/h (0 Bft) 95,65 %
10.11.2021 18:28 5,2 C 3,3 C 1,1 C 86 % 1025,1 hPa 0,0 l/m 0 min 0 min 0 W/m 0,0 km/h (0 Bft) 97,87 %
10.11.2021 18:30 5,1 C 3,3 C 1,1 C 86 % 1025,1 hPa 0,0 l/m 0 min 0 min 0 W/m 0,0 km/h (0 Bft) 97,87 %
10.11.2021 18:32 5,1 C 3,3 C 1,1 C 87 % 1025,2 hPa 0,0 l/m 0 min 0 min 0 W/m 0,0 km/h (0 Bft) 97,87 %
10.11.2021 18:34 5,1 C 3,3 C 0,6 C 87 % 1025,2 hPa 0,0 l/m 0 min 0 min 0 W/m 0,0 km/h (0 Bft) 95,74 %
10.11.2021 18:36 5,0 C 3,3 C 0,6 C 87 % 1025,1 hPa 0,0 l/m 0 min 0 min 0 W/m 0,0 km/h (0 Bft) 95,74 %
10.11.2021 18:38 5,0 C 3,3 C 0,6 C 87 % 1025,1 hPa 0,0 l/m 0 min 0 min 0 W/m 0,0 km/h (0 Bft) 95,65 %
10.11.2021 18:40 4,9 C 3,3 C 0,6 C 87 % 1025,2 hPa 0,0 l/m 0 min 0 min 0 W/m 0,0 km/h (0 Bft) 93,62 %
10.11.2021 18:42 4,9 C 2,8 C 0,6 C 87 % 1025,2 hPa 0,0 l/m 0 min 0 min 0 W/m 0,0 km/h (0 Bft) 95,74 %
10.11.2021 18:44 4,9 C 2,8 C 0,6 C 87 % 1025,2 hPa 0,0 l/m 0 min 0 min 0 W/m 0,0 km/h (0 Bft) 95,74 %
10.11.2021 18:46 4,8 C 2,8 C 0,6 C 87 % 1025,1 hPa 0,0 l/m 0 min 0 min 0 W/m 0,0 km/h (0 Bft) 95,74 %
10.11.2021 18:48 4,8 C 2,8 C 0,6 C 87 % 1025,1 hPa 0,0 l/m 0 min 0 min 0 W/m 0,0 km/h (0 Bft) 93,62 %
10.11.2021 18:50 4,8 C 2,8 C 0,6 C 87 % 1025,2 hPa 0,0 l/m 0 min 0 min 0 W/m 0,0 km/h (0 Bft) 95,65 %
10.11.2021 18:52 4,7 C 2,8 C 0,6 C 87 % 1025,2 hPa 0,0 l/m 0 min 0 min 0 W/m 0,0 km/h (0 Bft) 95,74 %
10.11.2021 18:54 4,6 C 2,8 C 0,6 C 87 % 1025,2 hPa 0,0 l/m 0 min 0 min 0 W/m 0,0 km/h (0 Bft) 95,74 %
10.11.2021 18:56 4,6 C 2,8 C 0,6 C 87 % 1025,2 hPa 0,0 l/m 0 min 0 min 0 W/m 0,0 km/h (0 Bft) 93,62 %
10.11.2021 18:58 4,5 C 2,8 C 0,6 C 87 % 1025,3 hPa 0,0 l/m 0 min 0 min 0 W/m 0,0 km/h (0 Bft) 95,74 %
10.11.2021 19:00 4,5 C 2,8 C 0,6 C 87 % 1025,3 hPa 0,0 l/m 0 min 0 min 0 W/m 0,0 km/h (0 Bft) 95,74 %
10.11.2021 19:02 4,5 C 2,8 C 0,6 C 87 % 1025,3 hPa 0,0 l/m 0 min 0 min 0 W/m 0,0 km/h (0 Bft) 97,83 %
10.11.2021 19:04 4,4 C 2,8 C 0,6 C 87 % 1025,2 hPa 0,0 l/m 0 min 0 min 0 W/m 0,0 km/h (0 Bft) 97,87 %
10.11.2021 19:06 4,3 C 2,8 C 0,6 C 87 % 1025,2 hPa 0,0 l/m 0 min 0 min 0 W/m 0,0 km/h (0 Bft) 97,87 %
10.11.2021 19:08 4,3 C 2,8 C 0,6 C 87 % 1025,2 hPa 0,0 l/m 0 min 0 min 0 W/m 0,0 km/h (0 Bft) 100,00 %
10.11.2021 19:10 4,3 C 2,2 C 0,6 C 87 % 1025,2 hPa 0,0 l/m 0 min 0 min 0 W/m 0,0 km/h (0 Bft) 97,87 %
10.11.2021 19:12 4,2 C 2,2 C 0,6 C 87 % 1025,1 hPa 0,0 l/m 0 min 0 min 0 W/m 0,0 km/h (0 Bft) 97,87 %
10.11.2021 19:14 4,1 C 2,2 C 0,6 C 87 % 1025,2 hPa 0,0 l/m 0 min 0 min 0 W/m 0,0 km/h (0 Bft) 95,65 %
10.11.2021 19:16 4,1 C 2,2 C 0,0 C 87 % 1025,2 hPa 0,0 l/m 0 min 0 min 0 W/m 0,0 km/h (0 Bft) 95,74 %
10.11.2021 19:18 4,1 C 2,2 C 0,0 C 87 % 1025,2 hPa 0,0 l/m 0 min 0 min 0 W/m 0,0 km/h (0 Bft) 97,87 %
10.11.2021 19:20 4,0 C 2,2 C 0,0 C 87 % 1025,2 hPa 0,0 l/m 0 min 0 min 0 W/m 0,0 km/h (0 Bft) 97,87 %
10.11.2021 19:22 4,0 C 2,2 C 0,0 C 87 % 1025,3 hPa 0,0 l/m 0 min 0 min 0 W/m 0,0 km/h (0 Bft) 97,87 %
10.11.2021 19:24 4,0 C 2,2 C 0,0 C 87 % 1025,3 hPa 0,0 l/m 0 min 0 min 0 W/m 0,0 km/h (0 Bft) 95,74 %
10.11.2021 19:26 3,9 C 2,2 C 0,0 C 87 % 1025,3 hPa 0,0 l/m 0 min 0 min 0 W/m 0,0 km/h (0 Bft) 95,65 %
10.11.2021 19:28 3,9 C 2,2 C 0,0 C 87 % 1025,3 hPa 0,0 l/m 0 min 0 min 0 W/m 0,0 km/h (0 Bft) 100,00 %
10.11.2021 19:30 3,9 C 2,2 C 0,0 C 88 % 1025,3 hPa 0,0 l/m 0 min 0 min 0 W/m 0,0 km/h (0 Bft) 100,00 %
10.11.2021 19:32 3,8 C 2,2 C 0,0 C 88 % 1025,3 hPa 0,0 l/m 0 min 0 min 0 W/m 0,0 km/h (0 Bft) 97,92 %
10.11.2021 19:34 3,8 C 2,2 C 0,0 C 88 % 1025,3 hPa 0,0 l/m 0 min 0 min 0 W/m 0,0 km/h (0 Bft) 97,87 %
10.11.2021 19:36 3,7 C 2,2 C 0,0 C 88 % 1025,3 hPa 0,0 l/m 0 min 0 min 0 W/m 0,0 km/h (0 Bft) 97,83 %
10.11.2021 19:38 3,7 C 2,2 C 0,0 C 88 % 1025,3 hPa 0,0 l/m 0 min 0 min 0 W/m 0,0 km/h (0 Bft) 97,87 %
10.11.2021 19:40 3,6 C 2,2 C 0,0 C 88 % 1025,2 hPa 0,0 l/m 0 min 0 min 0 W/m 0,0 km/h (0 Bft) 95,74 %
10.11.2021 19:42 3,6 C 2,2 C 0,0 C 88 % 1025,2 hPa 0,0 l/m 0 min 0 min 0 W/m 0,0 km/h (0 Bft) 95,74 %
10.11.2021 19:44 3,5 C 2,2 C 0,0 C 88 % 1025,2 hPa 0,0 l/m 0 min 0 min 0 W/m 0,0 km/h (0 Bft) 97,87 %
10.11.2021 19:46 3,5 C 2,2 C 0,0 C 88 % 1025,3 hPa 0,0 l/m 0 min 0 min 0 W/m 0,0 km/h (0 Bft) 97,87 %
10.11.2021 19:48 3,5 C 2,2 C 0,0 C 88 % 1025,4 hPa 0,0 l/m 0 min 0 min 0 W/m 0,0 km/h (0 Bft) 97,37 %
10.11.2021 19:50 3,4 C 2,2 C 0,0 C 88 % 1025,4 hPa 0,0 l/m 0 min 0 min 0 W/m 0,0 km/h (0 Bft) 95,74 %
10.11.2021 19:52 3,4 C 1,7 C 0,0 C 88 % 1025,4 hPa 0,0 l/m 0 min 0 min 0 W/m 0,0 km/h (0 Bft) 97,87 %
10.11.2021 19:54 3,4 C 1,7 C 0,0 C 88 % 1025,4 hPa 0,0 l/m 0 min 0 min 0 W/m 0,0 km/h (0 Bft) 97,87 %
10.11.2021 19:56 3,4 C 1,7 C 0,0 C 88 % 1025,4 hPa 0,0 l/m 0 min 0 min 0 W/m 0,0 km/h (0 Bft) 97,87 %
10.11.2021 19:58 3,3 C 1,7 C 0,0 C 88 % 1025,4 hPa 0,0 l/m 0 min 0 min 0 W/m 0,0 km/h (0 Bft) 97,83 %
10.11.2021 20:00 3,3 C 1,7 C 0,0 C 88 % 1025,4 hPa 0,0 l/m 0 min 0 min 0 W/m 0,0 km/h (0 Bft) 97,87 %
10.11.2021 20:02 3,3 C 1,7 C 0,0 C 88 % 1025,5 hPa 0,0 l/m 0 min 0 min 0 W/m 0,0 km/h (0 Bft) 93,62 %
10.11.2021 20:04 3,2 C 1,7 C 0,0 C 88 % 1025,5 hPa 0,0 l/m 0 min 0 min 0 W/m 0,0 km/h (0 Bft) 97,87 %
10.11.2021 20:06 3,1 C 1,7 C 0,0 C 88 % 1025,4 hPa 0,0 l/m 0 min 0 min 0 W/m 0,0 km/h (0 Bft) 100,00 %
10.11.2021 20:08 3,1 C 1,7 C 0,0 C 88 % 1025,4 hPa 0,0 l/m 0 min 0 min 0 W/m 0,0 km/h (0 Bft) 100,00 %
10.11.2021 20:10 3,1 C 1,7 C 0,0 C 88 % 1025,4 hPa 0,0 l/m 0 min 0 min 0 W/m 0,0 km/h (0 Bft) 97,83 %
10.11.2021 20:12 3,0 C 1,7 C 0,0 C 88 % 1025,3 hPa 0,0 l/m 0 min 0 min 0 W/m 0,0 km/h (0 Bft) 97,87 %
10.11.2021 20:14 3,0 C 1,7 C -0,6 C 88 % 1025,3 hPa 0,0 l/m 0 min 0 min 0 W/m 0,0 km/h (0 Bft) 97,87 %
10.11.2021 20:16 3,0 C 1,7 C 0,0 C 88 % 1025,3 hPa 0,0 l/m 0 min 0 min 0 W/m 0,0 km/h (0 Bft) 95,74 %
10.11.2021 20:18 2,9 C 1,7 C 0,0 C 89 % 1025,3 hPa 0,0 l/m 0 min 0 min 0 W/m 0,0 km/h (0 Bft) 97,87 %
10.11.2021 20:20 2,9 C 1,7 C 0,0 C 89 % 1025,3 hPa 0,0 l/m 0 min 0 min 0 W/m 0,0 km/h (0 Bft) 97,87 %
10.11.2021 20:22 2,9 C 1,7 C 0,0 C 89 % 1025,3 hPa 0,0 l/m 0 min 0 min 0 W/m 0,0 km/h (0 Bft) 95,65 %
10.11.2021 20:24 2,9 C 1,7 C 0,0 C 89 % 1025,3 hPa 0,0 l/m 0 min 0 min 0 W/m 0,0 km/h (0 Bft) 93,62 %
10.11.2021 20:26 2,9 C 1,7 C 0,0 C 89 % 1025,3 hPa 0,0 l/m 0 min 0 min 0 W/m 0,0 km/h (0 Bft) 97,87 %
10.11.2021 20:28 2,9 C 1,7 C 0,0 C 89 % 1025,3 hPa 0,0 l/m 0 min 0 min 0 W/m 0,0 km/h (0 Bft) 97,87 %
10.11.2021 20:30 2,9 C 1,7 C 0,0 C 89 % 1025,3 hPa 0,0 l/m 0 min 0 min 0 W/m 0,0 km/h (0 Bft) 95,74 %
10.11.2021 20:32 2,8 C 1,7 C 0,0 C 89 % 1025,3 hPa 0,0 l/m 0 min 0 min 0 W/m 0,0 km/h (0 Bft) 95,74 %
10.11.2021 20:34 2,8 C 1,7 C 0,0 C 89 % 1025,3 hPa 0,0 l/m 0 min 0 min 0 W/m 0,0 km/h (0 Bft) 97,83 %
10.11.2021 20:36 2,8 C 1,7 C -0,6 C 89 % 1025,3 hPa 0,0 l/m 0 min 0 min 0 W/m 0,0 km/h (0 Bft) 95,74 %
10.11.2021 20:38 2,7 C 1,7 C -0,6 C 89 % 1025,2 hPa 0,0 l/m 0 min 0 min 0 W/m 0,0 km/h (0 Bft) 97,87 %
10.11.2021 20:40 2,7 C 1,7 C -0,6 C 89 % 1025,2 hPa 0,0 l/m 0 min 0 min 0 W/m 0,0 km/h (0 Bft) 100,00 %
10.11.2021 20:42 2,6 C 1,1 C -0,6 C 89 % 1025,2 hPa 0,0 l/m 0 min 0 min 0 W/m 0,0 km/h (0 Bft) 100,00 %
10.11.2021 20:44 2,6 C 1,1 C -0,6 C 89 % 1025,2 hPa 0,0 l/m 0 min 0 min 0 W/m 0,0 km/h (0 Bft) 100,00 %
10.11.2021 20:46 2,6 C 1,1 C -0,6 C 89 % 1025,3 hPa 0,0 l/m 0 min 0 min 0 W/m 0,0 km/h (0 Bft) 100,00 %
10.11.2021 20:48 2,6 C 1,1 C -0,6 C 90 % 1025,2 hPa 0,0 l/m 0 min 0 min 0 W/m 0,0 km/h (0 Bft) 100,00 %
10.11.2021 20:50 2,5 C 1,1 C -0,6 C 90 % 1025,3 hPa 0,0 l/m 0 min 0 min 0 W/m 0,0 km/h (0 Bft) 100,00 %
10.11.2021 20:52 2,5 C 1,1 C -0,6 C 89 % 1025,3 hPa 0,0 l/m 0 min 0 min 0 W/m 0,0 km/h (0 Bft) 100,00 %
10.11.2021 20:54 2,5 C 1,1 C -0,6 C 90 % 1025,3 hPa 0,0 l/m 0 min 0 min 0 W/m 0,0 km/h (0 Bft) 100,00 %
10.11.2021 20:56 2,5 C 1,1 C -0,6 C 90 % 1025,3 hPa 0,0 l/m 0 min 0 min 0 W/m 0,0 km/h (0 Bft) 97,87 %
10.11.2021 20:58 2,5 C 1,1 C -0,6 C 90 % 1025,2 hPa 0,0 l/m 0 min 0 min 0 W/m 0,0 km/h (0 Bft) 100,00 %
10.11.2021 21:00 2,4 C 1,1 C -0,6 C 90 % 1025,2 hPa 0,0 l/m 0 min 0 min 0 W/m 0,0 km/h (0 Bft) 95,74 %
10.11.2021 21:02 2,4 C 1,1 C -0,6 C 90 % 1025,2 hPa 0,0 l/m 0 min 0 min 0 W/m 0,0 km/h (0 Bft) 100,00 %
10.11.2021 21:04 2,4 C 1,1 C -0,6 C 89 % 1025,1 hPa 0,0 l/m 0 min 0 min 0 W/m 0,0 km/h (0 Bft) 56,52 %
10.11.2021 21:06 2,3 C 1,1 C -0,6 C 89 % 1025,1 hPa 0,0 l/m 0 min 0 min 0 W/m 0,0 km/h (0 Bft) 100,00 %
10.11.2021 21:08 2,3 C 1,1 C -0,6 C 89 % 1025,0 hPa 0,0 l/m 0 min 0 min 0 W/m 0,0 km/h (0 Bft) 97,83 %
10.11.2021 21:10 2,3 C 1,1 C -0,6 C 89 % 1025,1 hPa 0,0 l/m 0 min 0 min 0 W/m 0,0 km/h (0 Bft) 97,87 %
10.11.2021 21:12 2,2 C 1,1 C -0,6 C 89 % 1025,1 hPa 0,0 l/m 0 min 0 min 0 W/m 0,0 km/h (0 Bft) 97,87 %
10.11.2021 21:14 2,2 C 1,1 C -0,6 C 89 % 1025,1 hPa 0,0 l/m 0 min 0 min 0 W/m 0,0 km/h (0 Bft) 97,87 %
10.11.2021 21:16 2,1 C 1,1 C -0,6 C 90 % 1025,1 hPa 0,0 l/m 0 min 0 min 0 W/m 0,0 km/h (0 Bft) 97,87 %
10.11.2021 21:18 2,1 C 1,1 C -0,6 C 90 % 1025,0 hPa 0,0 l/m 0 min 0 min 0 W/m 0,0 km/h (0 Bft) 97,87 %
10.11.2021 21:20 2,1 C 1,1 C -0,6 C 90 % 1025,0 hPa 0,0 l/m 0 min 0 min 0 W/m 0,0 km/h (0 Bft) 97,83 %
10.11.2021 21:22 2,1 C 1,1 C -0,6 C 90 % 1025,0 hPa 0,0 l/m 0 min 0 min 0 W/m 0,0 km/h (0 Bft) 97,87 %
10.11.2021 21:24 2,1 C 1,1 C -0,6 C 90 % 1025,0 hPa 0,0 l/m 0 min 0 min 0 W/m 0,0 km/h (0 Bft) 95,74 %
10.11.2021 21:26 2,0 C 1,1 C -0,6 C 90 % 1025,1 hPa 0,0 l/m 0 min 0 min 0 W/m 0,0 km/h (0 Bft) 97,87 %
10.11.2021 21:28 2,0 C 1,1 C -0,6 C 90 % 1025,1 hPa 0,0 l/m 0 min 0 min 0 W/m 0,0 km/h (0 Bft) 97,87 %
10.11.2021 21:30 2,0 C 1,1 C -0,6 C 90 % 1025,1 hPa 0,0 l/m 0 min 0 min 0 W/m 0,0 km/h (0 Bft) 95,74 %
10.11.2021 21:32 1,9 C 0,6 C -0,6 C 90 % 1025,2 hPa 0,0 l/m 0 min 0 min 0 W/m 0,0 km/h (0 Bft) 97,87 %
10.11.2021 21:34 1,9 C 0,6 C -0,6 C 90 % 1025,2 hPa 0,0 l/m 0 min 0 min 0 W/m 0,0 km/h (0 Bft) 100,00 %
10.11.2021 21:36 1,9 C 0,6 C -0,6 C 90 % 1025,3 hPa 0,0 l/m 0 min 0 min 0 W/m 0,0 km/h (0 Bft) 100,00 %
10.11.2021 21:38 1,9 C 0,6 C -0,6 C 90 % 1025,3 hPa 0,0 l/m 0 min 0 min 0 W/m 0,0 km/h (0 Bft) 100,00 %
10.11.2021 21:40 1,9 C 0,6 C -0,6 C 90 % 1025,4 hPa 0,0 l/m 0 min 0 min 0 W/m 0,0 km/h (0 Bft) 100,00 %
10.11.2021 21:42 1,8 C 0,6 C -1,1 C 90 % 1025,3 hPa 0,0 l/m 0 min 0 min 0 W/m 0,0 km/h (0 Bft) 97,87 %
10.11.2021 21:44 1,8 C 0,6 C -0,6 C 90 % 1025,2 hPa 0,0 l/m 0 min 0 min 0 W/m 0,0 km/h (0 Bft) 95,65 %
10.11.2021 21:46 1,8 C 0,6 C -0,6 C 90 % 1025,2 hPa 0,0 l/m 0 min 0 min 0 W/m 0,0 km/h (0 Bft) 100,00 %
10.11.2021 21:48 1,8 C 0,6 C -1,1 C 90 % 1025,2 hPa 0,0 l/m 0 min 0 min 0 W/m 0,0 km/h (0 Bft) 100,00 %
10.11.2021 21:50 1,7 C 0,6 C -0,6 C 90 % 1025,2 hPa 0,0 l/m 0 min 0 min 0 W/m 0,0 km/h (0 Bft) 97,87 %
10.11.2021 21:52 1,7 C 0,6 C -0,6 C 90 % 1025,2 hPa 0,0 l/m 0 min 0 min 0 W/m 0,0 km/h (0 Bft) 97,87 %
10.11.2021 21:54 1,7 C 0,6 C -0,6 C 90 % 1025,2 hPa 0,0 l/m 0 min 0 min 0 W/m 0,0 km/h (0 Bft) 97,87 %
10.11.2021 21:56 1,6 C 0,6 C -0,6 C 90 % 1025,2 hPa 0,0 l/m 0 min 0 min 0 W/m 0,0 km/h (0 Bft) 95,65 %
10.11.2021 21:58 1,6 C 0,6 C -1,1 C 90 % 1025,2 hPa 0,0 l/m 0 min 0 min 0 W/m 0,0 km/h (0 Bft) 97,87 %
10.11.2021 22:00 1,5 C 0,6 C -1,1 C 90 % 1025,1 hPa 0,0 l/m 0 min 0 min 0 W/m 0,0 km/h (0 Bft) 97,87 %
10.11.2021 22:02 1,5 C 0,6 C -1,1 C 90 % 1025,2 hPa 0,0 l/m 0 min 0 min 0 W/m 0,0 km/h (0 Bft) 97,87 %
10.11.2021 22:04 1,5 C 0,6 C -1,1 C 90 % 1025,1 hPa 0,0 l/m 0 min 0 min 0 W/m 0,0 km/h (0 Bft) 97,87 %
10.11.2021 22:06 1,5 C 0,6 C -1,1 C 90 % 1025,1 hPa 0,0 l/m 0 min 0 min 0 W/m 0,0 km/h (0 Bft) 97,87 %
10.11.2021 22:08 1,5 C 0,6 C -1,1 C 90 % 1025,2 hPa 0,0 l/m 0 min 0 min 0 W/m 0,0 km/h (0 Bft) 97,83 %
10.11.2021 22:10 1,4 C 0,6 C -1,1 C 90 % 1025,2 hPa 0,0 l/m 0 min 0 min 0 W/m 0,0 km/h (0 Bft) 97,87 %
10.11.2021 22:12 1,4 C 0,6 C -1,1 C 90 % 1025,1 hPa 0,0 l/m 0 min 0 min 0 W/m 0,0 km/h (0 Bft) 97,87 %
10.11.2021 22:14 1,4 C 0,6 C -1,1 C 90 % 1025,1 hPa 0,0 l/m 0 min 0 min 0 W/m 0,0 km/h (0 Bft) 97,87 %
10.11.2021 22:16 1,4 C 0,6 C -1,1 C 90 % 1025,1 hPa 0,0 l/m 0 min 0 min 0 W/m 0,0 km/h (0 Bft) 97,87 %
10.11.2021 22:18 1,4 C 0,6 C -1,1 C 90 % 1025,2 hPa 0,0 l/m 0 min 0 min 0 W/m 0,0 km/h (0 Bft) 100,00 %
10.11.2021 22:20 1,3 C 0,6 C -1,1 C 90 % 1025,2 hPa 0,0 l/m 0 min 0 min 0 W/m 0,0 km/h (0 Bft) 100,00 %
10.11.2021 22:22 1,3 C 0,6 C -1,1 C 90 % 1025,1 hPa 0,0 l/m 0 min 0 min 0 W/m 0,0 km/h (0 Bft) 100,00 %
10.11.2021 22:24 1,3 C 0,6 C -1,1 C 90 % 1025,2 hPa 0,0 l/m 0 min 0 min 0 W/m 0,0 km/h (0 Bft) 100,00 %
10.11.2021 22:26 1,2 C 0,6 C -1,1 C 90 % 1025,1 hPa 0,0 l/m 0 min 0 min 0 W/m 0,0 km/h (0 Bft) 100,00 %
10.11.2021 22:28 1,2 C 0,6 C -1,1 C 90 % 1025,2 hPa 0,0 l/m 0 min 0 min 0 W/m 0,0 km/h (0 Bft) 100,00 %
10.11.2021 22:30 1,1 C 0,6 C -1,1 C 90 % 1025,1 hPa 0,0 l/m 0 min 0 min 0 W/m 0,0 km/h (0 Bft) 97,87 %
10.11.2021 22:32 1,1 C 0,6 C -1,1 C 90 % 1025,2 hPa 0,0 l/m 0 min 0 min 0 W/m 0,0 km/h (0 Bft) 97,87 %
10.11.2021 22:34 1,1 C 0,6 C -1,1 C 90 % 1025,2 hPa 0,0 l/m 0 min 0 min 0 W/m 0,0 km/h (0 Bft) 100,00 %
10.11.2021 22:36 1,1 C 0,6 C -1,1 C 90 % 1025,2 hPa 0,0 l/m 0 min 0 min 0 W/m 0,0 km/h (0 Bft) 100,00 %
10.11.2021 22:38 1,1 C 0,6 C -1,1 C 90 % 1025,1 hPa 0,0 l/m 0 min 0 min 0 W/m 0,0 km/h (0 Bft) 95,74 %
10.11.2021 22:40 1,0 C 0,6 C -1,1 C 90 % 1025,1 hPa 0,0 l/m 0 min 0 min 0 W/m 0,0 km/h (0 Bft) 95,74 %
10.11.2021 22:42 1,0 C 0,6 C -1,1 C 90 % 1025,2 hPa 0,0 l/m 0 min 0 min 0 W/m 3,2 km/h (1 Bft) 95,74 %
10.11.2021 22:44 1,0 C 0,6 C -1,1 C 90 % 1025,1 hPa 0,0 l/m 0 min 0 min 0 W/m 0,0 km/h (0 Bft) 95,65 %
10.11.2021 22:46 1,0 C 0,6 C -1,1 C 90 % 1025,1 hPa 0,0 l/m 0 min 0 min 0 W/m 0,0 km/h (0 Bft) 95,74 %
10.11.2021 22:48 1,0 C 0,6 C -1,1 C 90 % 1025,1 hPa 0,0 l/m 0 min 0 min 0 W/m 0,0 km/h (0 Bft) 95,74 %
10.11.2021 22:50 1,0 C 1,1 C -1,1 C 90 % 1025,2 hPa 0,0 l/m 0 min 0 min 0 W/m 0,0 km/h (0 Bft) 95,74 %
10.11.2021 22:52 1,0 C 1,1 C -1,1 C 90 % 1025,1 hPa 0,0 l/m 0 min 0 min 0 W/m 3,2 km/h (1 Bft) 93,62 %
10.11.2021 22:54 1,1 C 1,1 C -0,6 C 91 % 1025,1 hPa 0,0 l/m 0 min 0 min 0 W/m 3,2 km/h (1 Bft) 93,62 %
10.11.2021 22:56 1,1 C 1,1 C -0,6 C 91 % 1025,0 hPa 0,0 l/m 0 min 0 min 0 W/m 3,2 km/h (1 Bft) 95,65 %
10.11.2021 22:58 1,1 C 1,1 C -0,6 C 91 % 1025,2 hPa 0,0 l/m 0 min 0 min 0 W/m 3,2 km/h (1 Bft) 91,49 %
10.11.2021 23:00 1,2 C 1,1 C -0,6 C 91 % 1025,1 hPa 0,0 l/m 0 min 0 min 0 W/m 0,0 km/h (0 Bft) 95,74 %
10.11.2021 23:02 1,3 C 1,7 C -0,6 C 91 % 1025,1 hPa 0,0 l/m 0 min 0 min 0 W/m 0,0 km/h (0 Bft) 91,49 %
10.11.2021 23:04 1,3 C 1,7 C -0,6 C 91 % 1025,1 hPa 0,0 l/m 0 min 0 min 0 W/m 3,2 km/h (1 Bft) 95,74 %
10.11.2021 23:06 1,4 C 1,7 C -0,6 C 92 % 1025,1 hPa 0,0 l/m 0 min 0 min 0 W/m 3,2 km/h (1 Bft) 97,87 %
10.11.2021 23:08 1,4 C 1,7 C -0,6 C 92 % 1025,1 hPa 0,0 l/m 0 min 0 min 0 W/m 0,0 km/h (0 Bft) 97,83 %
10.11.2021 23:10 1,5 C 1,7 C -0,6 C 92 % 1025,2 hPa 0,0 l/m 0 min 0 min 0 W/m 0,0 km/h (0 Bft) 95,74 %
10.11.2021 23:12 1,5 C 1,7 C -0,6 C 92 % 1025,2 hPa 0,0 l/m 0 min 0 min 0 W/m 0,0 km/h (0 Bft) 97,87 %
10.11.2021 23:14 1,5 C 1,1 C -0,6 C 92 % 1025,2 hPa 0,0 l/m 0 min 0 min 0 W/m 0,0 km/h (0 Bft) 95,74 %
10.11.2021 23:16 1,5 C 1,1 C -0,6 C 92 % 1025,3 hPa 0,0 l/m 0 min 0 min 0 W/m 0,0 km/h (0 Bft) 54,55 %
10.11.2021 23:18 1,5 C 1,1 C -0,6 C 92 % 1025,3 hPa 0,0 l/m 0 min 0 min 0 W/m 0,0 km/h (0 Bft) 97,87 %
10.11.2021 23:20 1,6 C 1,1 C -0,6 C 92 % 1025,3 hPa 0,0 l/m 0 min 0 min 0 W/m 0,0 km/h (0 Bft) 95,65 %
10.11.2021 23:22 1,6 C 1,1 C -0,6 C 92 % 1025,3 hPa 0,0 l/m 0 min 0 min 0 W/m 0,0 km/h (0 Bft) 95,74 %
10.11.2021 23:24 1,6 C 0,6 C -0,6 C 92 % 1025,3 hPa 0,0 l/m 0 min 0 min 0 W/m 0,0 km/h (0 Bft) 97,87 %
10.11.2021 23:26 1,6 C 0,6 C -0,6 C 92 % 1025,3 hPa 0,0 l/m 0 min 0 min 0 W/m 0,0 km/h (0 Bft) 95,74 %
10.11.2021 23:28 1,6 C 0,6 C -0,6 C 92 % 1025,2 hPa 0,0 l/m 0 min 0 min 0 W/m 0,0 km/h (0 Bft) 95,74 %
10.11.2021 23:30 1,6 C 0,6 C -1,1 C 92 % 1025,2 hPa 0,0 l/m 0 min 0 min 0 W/m 0,0 km/h (0 Bft) 95,74 %
10.11.2021 23:32 1,6 C 0,6 C -1,1 C 92 % 1025,2 hPa 0,0 l/m 0 min 0 min 0 W/m 0,0 km/h (0 Bft) 95,65 %
10.11.2021 23:34 1,6 C 0,6 C -1,1 C 92 % 1025,2 hPa 0,0 l/m 0 min 0 min 0 W/m 0,0 km/h (0 Bft) 91,49 %
10.11.2021 23:36 1,6 C 0,6 C -1,1 C 92 % 1025,3 hPa 0,0 l/m 0 min 0 min 0 W/m 0,0 km/h (0 Bft) 95,74 %
10.11.2021 23:38 1,5 C 0,6 C -1,1 C 92 % 1025,2 hPa 0,0 l/m 0 min 0 min 0 W/m 0,0 km/h (0 Bft) 95,74 %
10.11.2021 23:40 1,5 C 0,6 C -1,1 C 92 % 1025,3 hPa 0,0 l/m 0 min 0 min 0 W/m 0,0 km/h (0 Bft) 95,74 %
10.11.2021 23:42 1,5 C 0,6 C -1,1 C 92 % 1025,3 hPa 0,0 l/m 0 min 0 min 0 W/m 0,0 km/h (0 Bft) 97,87 %
10.11.2021 23:44 1,5 C 0,6 C -1,1 C 92 % 1025,3 hPa 0,0 l/m 0 min 0 min 0 W/m 0,0 km/h (0 Bft) 95,65 %
10.11.2021 23:46 1,5 C 0,6 C -1,1 C 92 % 1025,3 hPa 0,0 l/m 0 min 0 min 0 W/m 0,0 km/h (0 Bft) 95,74 %
10.11.2021 23:48 1,5 C 0,0 C -1,1 C 92 % 1025,3 hPa 0,0 l/m 0 min 0 min 0 W/m 0,0 km/h (0 Bft) 95,74 %
10.11.2021 23:50 1,5 C 0,6 C -1,1 C 92 % 1025,3 hPa 0,0 l/m 0 min 0 min 0 W/m 0,0 km/h (0 Bft) 95,74 %
10.11.2021 23:52 1,4 C 0,6 C -1,1 C 92 % 1025,3 hPa 0,0 l/m 0 min 0 min 0 W/m 0,0 km/h (0 Bft) 97,87 %
10.11.2021 23:54 1,4 C 0,0 C -1,1 C 92 % 1025,3 hPa 0,0 l/m 0 min 0 min 0 W/m 0,0 km/h (0 Bft) 97,87 %
10.11.2021 23:56 1,4 C 0,0 C -1,1 C 92 % 1025,3 hPa 0,0 l/m 0 min 0 min 0 W/m 0,0 km/h (0 Bft) 97,83 %
10.11.2021 23:58 1,4 C 0,0 C -1,1 C 92 % 1025,3 hPa 0,0 l/m 0 min 0 min 0 W/m 0,0 km/h (0 Bft) 97,87 %
_ Min-Zeit 22:40 23:48 07:38 14:44 14:24 - - - - 05:08 04:58
Minimum _ 1,0 C 0,0 C -1,1 C 77 % 1024,2 hPa - - - - 0,0 km/h (0 Bft) 52,38 %
_ Max-Zeit 14:46 13:16 14:26 09:02 00:34 09:20 15:16 00:00 13:04 09:08 00:00
Maximum _ 9,5 C 12,2 C 6,1 C 95 % 1026,5 hPa 0,2 l/m 4 min 0 min 352 W/m 19,3 km/h
SO (3 Bft)
100,00 %
Durchschnitt _ 4,5 C 4,0 C 1,6 C 89 % 1025,3 hPa #0,2 l/m #2:24 h #0 min. 114 W/m 3,5 km/h (1 Bft) 97,26 %
© 2021 W. Hausmann